<?xml version="1.0" encoding="UTF-8" standalone="no" ?>
<gpx xmlns="http://www.topografix.com/GPX/1/1" xmlns:xsi="http://www.w3.org/2001/XMLSchema-instance" xsi:schemaLocation="http://www.topografix.com/GPX/1/1 http://www.topografix.com/GPX/1/1/gpx.xsd" version="1.1" creator="VisuGPX - https://www.visugpx.com">
  <metadata>
    <name>Boucle de 3 jours sur les Hauts Plateaux sud du Vercors</name>
    <desc><![CDATA[Boucle au départ de Bénevise.
Jour 1 : Cabane de Chaumailloux par Tussac et la bergerie du Jardin du Roi.
Jour 2 : Cabane de Chatillon par la bergerie de Jas Neuf, le Glandasse et son sommet.
Jour 3 : retour à Bénevise par le col Gorodel et Menée.]]></desc>
  </metadata>
  <trk>
    <name><![CDATA[Cabane de Chaumailloux - Cabane de Chatillon]]></name>
    <extensions>
      <line xmlns="http://www.topografix.com/GPX/gpx_style/0/2">
        <color>ef2929</color>
        <width>4</width>
      </line>
    </extensions>
    <trkseg>
      <trkpt lat="44.80561" lon="5.51197">
        <ele>1627.17</ele>
        <time>2024-05-19T07:01:41Z</time>
      </trkpt>
      <trkpt lat="44.80561" lon="5.51197">
        <ele>1627.17</ele>
        <time>2024-05-19T07:01:42Z</time>
      </trkpt>
      <trkpt lat="44.80559" lon="5.51186">
        <ele>1627.17</ele>
        <time>2024-05-19T07:02:06Z</time>
      </trkpt>
      <trkpt lat="44.8056" lon="5.5117">
        <ele>1627.17</ele>
        <time>2024-05-19T07:02:24Z</time>
      </trkpt>
      <trkpt lat="44.80561" lon="5.51155">
        <ele>1627.17</ele>
        <time>2024-05-19T07:02:41Z</time>
      </trkpt>
      <trkpt lat="44.80561" lon="5.51147">
        <ele>1628.61</ele>
        <time>2024-05-19T07:02:50Z</time>
      </trkpt>
      <trkpt lat="44.80559" lon="5.51126">
        <ele>1629.09</ele>
        <time>2024-05-19T07:03:08Z</time>
      </trkpt>
      <trkpt lat="44.80555" lon="5.51115">
        <ele>1631.01</ele>
        <time>2024-05-19T07:03:22Z</time>
      </trkpt>
      <trkpt lat="44.80554" lon="5.51105">
        <ele>1632.46</ele>
        <time>2024-05-19T07:03:34Z</time>
      </trkpt>
      <trkpt lat="44.80553" lon="5.51104">
        <ele>1632.94</ele>
        <time>2024-05-19T07:03:36Z</time>
      </trkpt>
      <trkpt lat="44.8055" lon="5.51092">
        <ele>1635.82</ele>
        <time>2024-05-19T07:03:50Z</time>
      </trkpt>
      <trkpt lat="44.80547" lon="5.51082">
        <ele>1637.26</ele>
        <time>2024-05-19T07:04:04Z</time>
      </trkpt>
      <trkpt lat="44.80544" lon="5.51072">
        <ele>1639.19</ele>
        <time>2024-05-19T07:04:17Z</time>
      </trkpt>
      <trkpt lat="44.80546" lon="5.51066">
        <ele>1639.67</ele>
        <time>2024-05-19T07:04:24Z</time>
      </trkpt>
      <trkpt lat="44.80545" lon="5.51055">
        <ele>1641.11</ele>
        <time>2024-05-19T07:04:35Z</time>
      </trkpt>
      <trkpt lat="44.80545" lon="5.51047">
        <ele>1642.07</ele>
        <time>2024-05-19T07:04:46Z</time>
      </trkpt>
      <trkpt lat="44.80544" lon="5.51031">
        <ele>1643.03</ele>
        <time>2024-05-19T07:05:00Z</time>
      </trkpt>
      <trkpt lat="44.80544" lon="5.51015">
        <ele>1643.51</ele>
        <time>2024-05-19T07:05:13Z</time>
      </trkpt>
      <trkpt lat="44.80547" lon="5.51">
        <ele>1643.51</ele>
        <time>2024-05-19T07:05:23Z</time>
      </trkpt>
      <trkpt lat="44.80552" lon="5.50994">
        <ele>1642.07</ele>
        <time>2024-05-19T07:05:30Z</time>
      </trkpt>
      <trkpt lat="44.80554" lon="5.50986">
        <ele>1641.11</ele>
        <time>2024-05-19T07:05:42Z</time>
      </trkpt>
      <trkpt lat="44.80555" lon="5.50983">
        <ele>1641.11</ele>
        <time>2024-05-19T07:05:44Z</time>
      </trkpt>
      <trkpt lat="44.80555" lon="5.50963">
        <ele>1640.63</ele>
        <time>2024-05-19T07:05:59Z</time>
      </trkpt>
      <trkpt lat="44.80555" lon="5.5095">
        <ele>1640.63</ele>
        <time>2024-05-19T07:06:14Z</time>
      </trkpt>
      <trkpt lat="44.80557" lon="5.5094">
        <ele>1640.15</ele>
        <time>2024-05-19T07:06:21Z</time>
      </trkpt>
      <trkpt lat="44.8056" lon="5.50924">
        <ele>1640.15</ele>
        <time>2024-05-19T07:06:33Z</time>
      </trkpt>
      <trkpt lat="44.80561" lon="5.50911">
        <ele>1641.59</ele>
        <time>2024-05-19T07:06:44Z</time>
      </trkpt>
      <trkpt lat="44.80561" lon="5.50893">
        <ele>1640.15</ele>
        <time>2024-05-19T07:06:59Z</time>
      </trkpt>
      <trkpt lat="44.80565" lon="5.50884">
        <ele>1639.19</ele>
        <time>2024-05-19T07:07:07Z</time>
      </trkpt>
      <trkpt lat="44.80571" lon="5.50863">
        <ele>1637.26</ele>
        <time>2024-05-19T07:07:22Z</time>
      </trkpt>
      <trkpt lat="44.80571" lon="5.50862">
        <ele>1637.26</ele>
        <time>2024-05-19T07:07:23Z</time>
      </trkpt>
      <trkpt lat="44.80575" lon="5.5084">
        <ele>1635.34</ele>
        <time>2024-05-19T07:07:38Z</time>
      </trkpt>
      <trkpt lat="44.80575" lon="5.50836">
        <ele>1634.86</ele>
        <time>2024-05-19T07:07:41Z</time>
      </trkpt>
      <trkpt lat="44.80576" lon="5.50829">
        <ele>1634.38</ele>
        <time>2024-05-19T07:07:47Z</time>
      </trkpt>
      <trkpt lat="44.80582" lon="5.50807">
        <ele>1633.42</ele>
        <time>2024-05-19T07:08:02Z</time>
      </trkpt>
      <trkpt lat="44.80584" lon="5.50792">
        <ele>1635.82</ele>
        <time>2024-05-19T07:08:17Z</time>
      </trkpt>
      <trkpt lat="44.8059" lon="5.50779">
        <ele>1637.26</ele>
        <time>2024-05-19T07:08:32Z</time>
      </trkpt>
      <trkpt lat="44.80597" lon="5.50767">
        <ele>1635.82</ele>
        <time>2024-05-19T07:08:47Z</time>
      </trkpt>
      <trkpt lat="44.80601" lon="5.50752">
        <ele>1635.34</ele>
        <time>2024-05-19T07:09:01Z</time>
      </trkpt>
      <trkpt lat="44.80604" lon="5.50737">
        <ele>1634.86</ele>
        <time>2024-05-19T07:09:14Z</time>
      </trkpt>
      <trkpt lat="44.80607" lon="5.50715">
        <ele>1633.42</ele>
        <time>2024-05-19T07:09:29Z</time>
      </trkpt>
      <trkpt lat="44.80607" lon="5.507">
        <ele>1632.46</ele>
        <time>2024-05-19T07:09:39Z</time>
      </trkpt>
      <trkpt lat="44.80607" lon="5.50696">
        <ele>1631.98</ele>
        <time>2024-05-19T07:09:42Z</time>
      </trkpt>
      <trkpt lat="44.80611" lon="5.50686">
        <ele>1631.01</ele>
        <time>2024-05-19T07:09:49Z</time>
      </trkpt>
      <trkpt lat="44.80611" lon="5.50681">
        <ele>1630.53</ele>
        <time>2024-05-19T07:09:52Z</time>
      </trkpt>
      <trkpt lat="44.80611" lon="5.50666">
        <ele>1630.53</ele>
        <time>2024-05-19T07:10:02Z</time>
      </trkpt>
      <trkpt lat="44.80613" lon="5.50643">
        <ele>1631.01</ele>
        <time>2024-05-19T07:10:17Z</time>
      </trkpt>
      <trkpt lat="44.8062" lon="5.50625">
        <ele>1631.01</ele>
        <time>2024-05-19T07:10:31Z</time>
      </trkpt>
      <trkpt lat="44.80623" lon="5.50613">
        <ele>1630.53</ele>
        <time>2024-05-19T07:10:39Z</time>
      </trkpt>
      <trkpt lat="44.80623" lon="5.50597">
        <ele>1630.53</ele>
        <time>2024-05-19T07:10:50Z</time>
      </trkpt>
      <trkpt lat="44.80623" lon="5.50592">
        <ele>1630.53</ele>
        <time>2024-05-19T07:10:54Z</time>
      </trkpt>
      <trkpt lat="44.80624" lon="5.50589">
        <ele>1631.49</ele>
        <time>2024-05-19T07:10:56Z</time>
      </trkpt>
      <trkpt lat="44.80625" lon="5.50574">
        <ele>1631.49</ele>
        <time>2024-05-19T07:11:06Z</time>
      </trkpt>
      <trkpt lat="44.80623" lon="5.50563">
        <ele>1631.49</ele>
        <time>2024-05-19T07:11:13Z</time>
      </trkpt>
      <trkpt lat="44.80617" lon="5.50538">
        <ele>1631.49</ele>
        <time>2024-05-19T07:11:30Z</time>
      </trkpt>
      <trkpt lat="44.80616" lon="5.50533">
        <ele>1631.49</ele>
        <time>2024-05-19T07:11:33Z</time>
      </trkpt>
      <trkpt lat="44.80617" lon="5.50508">
        <ele>1630.53</ele>
        <time>2024-05-19T07:11:49Z</time>
      </trkpt>
      <trkpt lat="44.80616" lon="5.50498">
        <ele>1630.53</ele>
        <time>2024-05-19T07:11:57Z</time>
      </trkpt>
      <trkpt lat="44.80612" lon="5.5048">
        <ele>1631.98</ele>
        <time>2024-05-19T07:12:11Z</time>
      </trkpt>
      <trkpt lat="44.80608" lon="5.50455">
        <ele>1631.98</ele>
        <time>2024-05-19T07:12:27Z</time>
      </trkpt>
      <trkpt lat="44.80603" lon="5.50441">
        <ele>1632.46</ele>
        <time>2024-05-19T07:12:39Z</time>
      </trkpt>
      <trkpt lat="44.80601" lon="5.50436">
        <ele>1632.46</ele>
        <time>2024-05-19T07:12:43Z</time>
      </trkpt>
      <trkpt lat="44.80588" lon="5.50417">
        <ele>1632.94</ele>
        <time>2024-05-19T07:12:57Z</time>
      </trkpt>
      <trkpt lat="44.8058" lon="5.50396">
        <ele>1632.94</ele>
        <time>2024-05-19T07:13:13Z</time>
      </trkpt>
      <trkpt lat="44.80577" lon="5.5039">
        <ele>1632.94</ele>
        <time>2024-05-19T07:13:18Z</time>
      </trkpt>
      <trkpt lat="44.80565" lon="5.5037">
        <ele>1631.49</ele>
        <time>2024-05-19T07:13:35Z</time>
      </trkpt>
      <trkpt lat="44.80554" lon="5.5035">
        <ele>1631.49</ele>
        <time>2024-05-19T07:13:51Z</time>
      </trkpt>
      <trkpt lat="44.80553" lon="5.50349">
        <ele>1631.49</ele>
        <time>2024-05-19T07:13:52Z</time>
      </trkpt>
      <trkpt lat="44.80546" lon="5.50327">
        <ele>1631.49</ele>
        <time>2024-05-19T07:14:08Z</time>
      </trkpt>
      <trkpt lat="44.80538" lon="5.50307">
        <ele>1631.49</ele>
        <time>2024-05-19T07:14:23Z</time>
      </trkpt>
      <trkpt lat="44.80528" lon="5.50279">
        <ele>1631.01</ele>
        <time>2024-05-19T07:14:43Z</time>
      </trkpt>
      <trkpt lat="44.80521" lon="5.50261">
        <ele>1631.98</ele>
        <time>2024-05-19T07:14:58Z</time>
      </trkpt>
      <trkpt lat="44.80517" lon="5.50253">
        <ele>1631.01</ele>
        <time>2024-05-19T07:15:04Z</time>
      </trkpt>
      <trkpt lat="44.80514" lon="5.50249">
        <ele>1630.53</ele>
        <time>2024-05-19T07:15:08Z</time>
      </trkpt>
      <trkpt lat="44.80494" lon="5.50232">
        <ele>1628.61</ele>
        <time>2024-05-19T07:15:27Z</time>
      </trkpt>
      <trkpt lat="44.80488" lon="5.50224">
        <ele>1628.61</ele>
        <time>2024-05-19T07:15:40Z</time>
      </trkpt>
      <trkpt lat="44.8049" lon="5.50226">
        <ele>1628.61</ele>
        <time>2024-05-19T07:15:48Z</time>
      </trkpt>
      <trkpt lat="44.80482" lon="5.50221">
        <ele>1628.61</ele>
        <time>2024-05-19T07:15:56Z</time>
      </trkpt>
      <trkpt lat="44.80464" lon="5.5021">
        <ele>1628.61</ele>
        <time>2024-05-19T07:16:13Z</time>
      </trkpt>
      <trkpt lat="44.80462" lon="5.50208">
        <ele>1628.61</ele>
        <time>2024-05-19T07:16:15Z</time>
      </trkpt>
      <trkpt lat="44.8046" lon="5.50206">
        <ele>1628.61</ele>
        <time>2024-05-19T07:16:18Z</time>
      </trkpt>
      <trkpt lat="44.80449" lon="5.50195">
        <ele>1630.05</ele>
        <time>2024-05-19T07:16:30Z</time>
      </trkpt>
      <trkpt lat="44.80446" lon="5.50193">
        <ele>1629.57</ele>
        <time>2024-05-19T07:16:34Z</time>
      </trkpt>
      <trkpt lat="44.80437" lon="5.50188">
        <ele>1630.05</ele>
        <time>2024-05-19T07:16:44Z</time>
      </trkpt>
      <trkpt lat="44.8043" lon="5.50189">
        <ele>1630.53</ele>
        <time>2024-05-19T07:16:52Z</time>
      </trkpt>
      <trkpt lat="44.8042" lon="5.50188">
        <ele>1630.53</ele>
        <time>2024-05-19T07:17:01Z</time>
      </trkpt>
      <trkpt lat="44.80402" lon="5.50183">
        <ele>1630.53</ele>
        <time>2024-05-19T07:17:16Z</time>
      </trkpt>
      <trkpt lat="44.80388" lon="5.50161">
        <ele>1630.53</ele>
        <time>2024-05-19T07:17:34Z</time>
      </trkpt>
      <trkpt lat="44.80372" lon="5.50142">
        <ele>1629.57</ele>
        <time>2024-05-19T07:17:51Z</time>
      </trkpt>
      <trkpt lat="44.80365" lon="5.50137">
        <ele>1629.57</ele>
        <time>2024-05-19T07:17:58Z</time>
      </trkpt>
      <trkpt lat="44.80349" lon="5.50115">
        <ele>1629.57</ele>
        <time>2024-05-19T07:18:18Z</time>
      </trkpt>
      <trkpt lat="44.80336" lon="5.50093">
        <ele>1629.57</ele>
        <time>2024-05-19T07:18:36Z</time>
      </trkpt>
      <trkpt lat="44.80323" lon="5.50073">
        <ele>1629.57</ele>
        <time>2024-05-19T07:18:53Z</time>
      </trkpt>
      <trkpt lat="44.80309" lon="5.50051">
        <ele>1629.57</ele>
        <time>2024-05-19T07:19:11Z</time>
      </trkpt>
      <trkpt lat="44.80303" lon="5.50043">
        <ele>1629.09</ele>
        <time>2024-05-19T07:19:18Z</time>
      </trkpt>
      <trkpt lat="44.80291" lon="5.50023">
        <ele>1627.65</ele>
        <time>2024-05-19T07:19:35Z</time>
      </trkpt>
      <trkpt lat="44.80281" lon="5.50006">
        <ele>1627.17</ele>
        <time>2024-05-19T07:19:50Z</time>
      </trkpt>
      <trkpt lat="44.80269" lon="5.49987">
        <ele>1626.69</ele>
        <time>2024-05-19T07:20:07Z</time>
      </trkpt>
      <trkpt lat="44.80254" lon="5.49966">
        <ele>1626.69</ele>
        <time>2024-05-19T07:20:25Z</time>
      </trkpt>
      <trkpt lat="44.80239" lon="5.49944">
        <ele>1627.17</ele>
        <time>2024-05-19T07:20:43Z</time>
      </trkpt>
      <trkpt lat="44.80231" lon="5.49922">
        <ele>1628.61</ele>
        <time>2024-05-19T07:20:59Z</time>
      </trkpt>
      <trkpt lat="44.80222" lon="5.49906">
        <ele>1628.61</ele>
        <time>2024-05-19T07:21:12Z</time>
      </trkpt>
      <trkpt lat="44.80209" lon="5.49885">
        <ele>1629.09</ele>
        <time>2024-05-19T07:21:29Z</time>
      </trkpt>
      <trkpt lat="44.80202" lon="5.49878">
        <ele>1629.09</ele>
        <time>2024-05-19T07:21:37Z</time>
      </trkpt>
      <trkpt lat="44.80201" lon="5.49876">
        <ele>1629.09</ele>
        <time>2024-05-19T07:21:39Z</time>
      </trkpt>
      <trkpt lat="44.80188" lon="5.49854">
        <ele>1627.65</ele>
        <time>2024-05-19T07:21:56Z</time>
      </trkpt>
      <trkpt lat="44.80175" lon="5.4983">
        <ele>1626.69</ele>
        <time>2024-05-19T07:22:13Z</time>
      </trkpt>
      <trkpt lat="44.80172" lon="5.49818">
        <ele>1626.69</ele>
        <time>2024-05-19T07:22:22Z</time>
      </trkpt>
      <trkpt lat="44.80158" lon="5.49793">
        <ele>1626.69</ele>
        <time>2024-05-19T07:22:41Z</time>
      </trkpt>
      <trkpt lat="44.80143" lon="5.49769">
        <ele>1626.69</ele>
        <time>2024-05-19T07:23:00Z</time>
      </trkpt>
      <trkpt lat="44.8013" lon="5.49747">
        <ele>1626.69</ele>
        <time>2024-05-19T07:23:17Z</time>
      </trkpt>
      <trkpt lat="44.80116" lon="5.49724">
        <ele>1625.73</ele>
        <time>2024-05-19T07:23:35Z</time>
      </trkpt>
      <trkpt lat="44.80103" lon="5.49702">
        <ele>1625.25</ele>
        <time>2024-05-19T07:23:53Z</time>
      </trkpt>
      <trkpt lat="44.80088" lon="5.49685">
        <ele>1625.25</ele>
        <time>2024-05-19T07:24:11Z</time>
      </trkpt>
      <trkpt lat="44.80079" lon="5.49673">
        <ele>1626.69</ele>
        <time>2024-05-19T07:24:23Z</time>
      </trkpt>
      <trkpt lat="44.80067" lon="5.49655">
        <ele>1628.13</ele>
        <time>2024-05-19T07:24:39Z</time>
      </trkpt>
      <trkpt lat="44.80058" lon="5.49639">
        <ele>1627.17</ele>
        <time>2024-05-19T07:24:53Z</time>
      </trkpt>
      <trkpt lat="44.80043" lon="5.49615">
        <ele>1625.73</ele>
        <time>2024-05-19T07:25:12Z</time>
      </trkpt>
      <trkpt lat="44.8003" lon="5.49602">
        <ele>1627.65</ele>
        <time>2024-05-19T07:43:25Z</time>
      </trkpt>
      <trkpt lat="44.80024" lon="5.49595">
        <ele>1626.69</ele>
        <time>2024-05-19T07:43:39Z</time>
      </trkpt>
      <trkpt lat="44.80017" lon="5.49589">
        <ele>1625.73</ele>
        <time>2024-05-19T07:43:48Z</time>
      </trkpt>
      <trkpt lat="44.80001" lon="5.49567">
        <ele>1623.32</ele>
        <time>2024-05-19T07:44:09Z</time>
      </trkpt>
      <trkpt lat="44.79989" lon="5.49543">
        <ele>1621.4</ele>
        <time>2024-05-19T07:44:26Z</time>
      </trkpt>
      <trkpt lat="44.79979" lon="5.49515">
        <ele>1621.4</ele>
        <time>2024-05-19T07:44:44Z</time>
      </trkpt>
      <trkpt lat="44.79964" lon="5.49482">
        <ele>1620.44</ele>
        <time>2024-05-19T07:45:07Z</time>
      </trkpt>
      <trkpt lat="44.79948" lon="5.49455">
        <ele>1619</ele>
        <time>2024-05-19T07:45:28Z</time>
      </trkpt>
      <trkpt lat="44.79933" lon="5.49429">
        <ele>1619</ele>
        <time>2024-05-19T07:45:47Z</time>
      </trkpt>
      <trkpt lat="44.79918" lon="5.49398">
        <ele>1618.04</ele>
        <time>2024-05-19T07:46:07Z</time>
      </trkpt>
      <trkpt lat="44.79906" lon="5.49373">
        <ele>1617.56</ele>
        <time>2024-05-19T07:46:24Z</time>
      </trkpt>
      <trkpt lat="44.79886" lon="5.4935">
        <ele>1616.59</ele>
        <time>2024-05-19T07:46:46Z</time>
      </trkpt>
      <trkpt lat="44.79885" lon="5.49348">
        <ele>1616.59</ele>
        <time>2024-05-19T07:46:48Z</time>
      </trkpt>
      <trkpt lat="44.79879" lon="5.49341">
        <ele>1616.11</ele>
        <time>2024-05-19T07:46:54Z</time>
      </trkpt>
      <trkpt lat="44.79874" lon="5.49316">
        <ele>1616.11</ele>
        <time>2024-05-19T07:47:09Z</time>
      </trkpt>
      <trkpt lat="44.79864" lon="5.49294">
        <ele>1615.63</ele>
        <time>2024-05-19T07:47:26Z</time>
      </trkpt>
      <trkpt lat="44.79851" lon="5.49266">
        <ele>1615.15</ele>
        <time>2024-05-19T07:47:46Z</time>
      </trkpt>
      <trkpt lat="44.79839" lon="5.49244">
        <ele>1615.15</ele>
        <time>2024-05-19T07:48:03Z</time>
      </trkpt>
      <trkpt lat="44.79832" lon="5.49214">
        <ele>1614.67</ele>
        <time>2024-05-19T07:48:22Z</time>
      </trkpt>
      <trkpt lat="44.79827" lon="5.49193">
        <ele>1613.71</ele>
        <time>2024-05-19T07:48:36Z</time>
      </trkpt>
      <trkpt lat="44.79821" lon="5.49171">
        <ele>1613.23</ele>
        <time>2024-05-19T07:48:51Z</time>
      </trkpt>
      <trkpt lat="44.79812" lon="5.49145">
        <ele>1613.23</ele>
        <time>2024-05-19T07:49:08Z</time>
      </trkpt>
      <trkpt lat="44.79804" lon="5.49124">
        <ele>1613.23</ele>
        <time>2024-05-19T07:49:24Z</time>
      </trkpt>
      <trkpt lat="44.79804" lon="5.49122">
        <ele>1613.23</ele>
        <time>2024-05-19T07:49:25Z</time>
      </trkpt>
      <trkpt lat="44.79805" lon="5.49114">
        <ele>1613.23</ele>
        <time>2024-05-19T07:49:30Z</time>
      </trkpt>
      <trkpt lat="44.79807" lon="5.49095">
        <ele>1612.75</ele>
        <time>2024-05-19T07:49:45Z</time>
      </trkpt>
      <trkpt lat="44.79808" lon="5.49091">
        <ele>1612.27</ele>
        <time>2024-05-19T07:49:48Z</time>
      </trkpt>
      <trkpt lat="44.79817" lon="5.49074">
        <ele>1610.83</ele>
        <time>2024-05-19T07:50:03Z</time>
      </trkpt>
      <trkpt lat="44.7982" lon="5.4906">
        <ele>1609.86</ele>
        <time>2024-05-19T07:50:16Z</time>
      </trkpt>
      <trkpt lat="44.79821" lon="5.49055">
        <ele>1609.86</ele>
        <time>2024-05-19T07:50:19Z</time>
      </trkpt>
      <trkpt lat="44.79822" lon="5.4905">
        <ele>1609.38</ele>
        <time>2024-05-19T07:50:24Z</time>
      </trkpt>
      <trkpt lat="44.79821" lon="5.49044">
        <ele>1608.9</ele>
        <time>2024-05-19T07:50:28Z</time>
      </trkpt>
      <trkpt lat="44.7982" lon="5.49037">
        <ele>1608.42</ele>
        <time>2024-05-19T07:50:41Z</time>
      </trkpt>
      <trkpt lat="44.79819" lon="5.49031">
        <ele>1608.42</ele>
        <time>2024-05-19T07:51:50Z</time>
      </trkpt>
      <trkpt lat="44.79816" lon="5.49027">
        <ele>1608.42</ele>
        <time>2024-05-19T07:51:54Z</time>
      </trkpt>
      <trkpt lat="44.79812" lon="5.49025">
        <ele>1608.42</ele>
        <time>2024-05-19T07:51:58Z</time>
      </trkpt>
      <trkpt lat="44.798" lon="5.4901">
        <ele>1608.42</ele>
        <time>2024-05-19T07:52:12Z</time>
      </trkpt>
      <trkpt lat="44.79798" lon="5.48996">
        <ele>1608.42</ele>
        <time>2024-05-19T07:52:23Z</time>
      </trkpt>
      <trkpt lat="44.79804" lon="5.48982">
        <ele>1608.42</ele>
        <time>2024-05-19T07:52:34Z</time>
      </trkpt>
      <trkpt lat="44.7981" lon="5.48956">
        <ele>1607.94</ele>
        <time>2024-05-19T07:52:51Z</time>
      </trkpt>
      <trkpt lat="44.79817" lon="5.48936">
        <ele>1607.46</ele>
        <time>2024-05-19T07:53:06Z</time>
      </trkpt>
      <trkpt lat="44.79821" lon="5.48924">
        <ele>1607.46</ele>
        <time>2024-05-19T07:53:15Z</time>
      </trkpt>
      <trkpt lat="44.7982" lon="5.48915">
        <ele>1607.46</ele>
        <time>2024-05-19T07:53:25Z</time>
      </trkpt>
      <trkpt lat="44.79811" lon="5.48898">
        <ele>1606.98</ele>
        <time>2024-05-19T07:53:40Z</time>
      </trkpt>
      <trkpt lat="44.79796" lon="5.48882">
        <ele>1606.5</ele>
        <time>2024-05-19T07:53:54Z</time>
      </trkpt>
      <trkpt lat="44.79793" lon="5.48856">
        <ele>1605.06</ele>
        <time>2024-05-19T07:54:11Z</time>
      </trkpt>
      <trkpt lat="44.79796" lon="5.48845">
        <ele>1604.1</ele>
        <time>2024-05-19T07:54:18Z</time>
      </trkpt>
      <trkpt lat="44.79789" lon="5.48831">
        <ele>1603.14</ele>
        <time>2024-05-19T07:54:28Z</time>
      </trkpt>
      <trkpt lat="44.79785" lon="5.48805">
        <ele>1602.66</ele>
        <time>2024-05-19T07:54:45Z</time>
      </trkpt>
      <trkpt lat="44.79778" lon="5.48788">
        <ele>1602.17</ele>
        <time>2024-05-19T07:54:58Z</time>
      </trkpt>
      <trkpt lat="44.79775" lon="5.48782">
        <ele>1602.17</ele>
        <time>2024-05-19T07:55:03Z</time>
      </trkpt>
      <trkpt lat="44.79765" lon="5.48766">
        <ele>1602.17</ele>
        <time>2024-05-19T07:55:15Z</time>
      </trkpt>
      <trkpt lat="44.79749" lon="5.48747">
        <ele>1602.17</ele>
        <time>2024-05-19T07:55:31Z</time>
      </trkpt>
      <trkpt lat="44.7974" lon="5.48718">
        <ele>1602.17</ele>
        <time>2024-05-19T07:55:49Z</time>
      </trkpt>
      <trkpt lat="44.79733" lon="5.48693">
        <ele>1602.17</ele>
        <time>2024-05-19T07:56:05Z</time>
      </trkpt>
      <trkpt lat="44.79729" lon="5.48678">
        <ele>1602.17</ele>
        <time>2024-05-19T07:56:15Z</time>
      </trkpt>
      <trkpt lat="44.79718" lon="5.48658">
        <ele>1604.1</ele>
        <time>2024-05-19T07:56:31Z</time>
      </trkpt>
      <trkpt lat="44.79713" lon="5.48647">
        <ele>1604.1</ele>
        <time>2024-05-19T07:56:39Z</time>
      </trkpt>
      <trkpt lat="44.7971" lon="5.4864">
        <ele>1602.66</ele>
        <time>2024-05-19T07:56:44Z</time>
      </trkpt>
      <trkpt lat="44.79704" lon="5.48615">
        <ele>1601.69</ele>
        <time>2024-05-19T07:56:59Z</time>
      </trkpt>
      <trkpt lat="44.79696" lon="5.48594">
        <ele>1601.69</ele>
        <time>2024-05-19T07:57:13Z</time>
      </trkpt>
      <trkpt lat="44.79689" lon="5.48582">
        <ele>1603.14</ele>
        <time>2024-05-19T07:57:24Z</time>
      </trkpt>
      <trkpt lat="44.79672" lon="5.48564">
        <ele>1604.1</ele>
        <time>2024-05-19T07:57:41Z</time>
      </trkpt>
      <trkpt lat="44.7966" lon="5.48558">
        <ele>1604.1</ele>
        <time>2024-05-19T07:57:52Z</time>
      </trkpt>
      <trkpt lat="44.79656" lon="5.48557">
        <ele>1602.66</ele>
        <time>2024-05-19T07:57:55Z</time>
      </trkpt>
      <trkpt lat="44.7964" lon="5.4855">
        <ele>1599.77</ele>
        <time>2024-05-19T07:58:10Z</time>
      </trkpt>
      <trkpt lat="44.79627" lon="5.48534">
        <ele>1597.85</ele>
        <time>2024-05-19T07:58:26Z</time>
      </trkpt>
      <trkpt lat="44.79613" lon="5.48512">
        <ele>1597.37</ele>
        <time>2024-05-19T07:58:42Z</time>
      </trkpt>
      <trkpt lat="44.796" lon="5.48491">
        <ele>1596.89</ele>
        <time>2024-05-19T07:58:59Z</time>
      </trkpt>
      <trkpt lat="44.79588" lon="5.48472">
        <ele>1596.89</ele>
        <time>2024-05-19T07:59:15Z</time>
      </trkpt>
      <trkpt lat="44.79576" lon="5.48458">
        <ele>1596.89</ele>
        <time>2024-05-19T07:59:27Z</time>
      </trkpt>
      <trkpt lat="44.79562" lon="5.48434">
        <ele>1595.93</ele>
        <time>2024-05-19T07:59:45Z</time>
      </trkpt>
      <trkpt lat="44.79552" lon="5.48415">
        <ele>1595.45</ele>
        <time>2024-05-19T07:59:59Z</time>
      </trkpt>
      <trkpt lat="44.79542" lon="5.48399">
        <ele>1594.48</ele>
        <time>2024-05-19T08:00:11Z</time>
      </trkpt>
      <trkpt lat="44.79534" lon="5.48385">
        <ele>1593.04</ele>
        <time>2024-05-19T08:00:25Z</time>
      </trkpt>
      <trkpt lat="44.79524" lon="5.48378">
        <ele>1592.56</ele>
        <time>2024-05-19T08:00:37Z</time>
      </trkpt>
      <trkpt lat="44.79506" lon="5.48367">
        <ele>1590.64</ele>
        <time>2024-05-19T08:00:54Z</time>
      </trkpt>
      <trkpt lat="44.79489" lon="5.48352">
        <ele>1588.72</ele>
        <time>2024-05-19T08:01:11Z</time>
      </trkpt>
      <trkpt lat="44.79469" lon="5.48328">
        <ele>1588.24</ele>
        <time>2024-05-19T08:01:33Z</time>
      </trkpt>
      <trkpt lat="44.79465" lon="5.48322">
        <ele>1588.24</ele>
        <time>2024-05-19T08:01:38Z</time>
      </trkpt>
      <trkpt lat="44.79455" lon="5.4831">
        <ele>1589.2</ele>
        <time>2024-05-19T08:01:50Z</time>
      </trkpt>
      <trkpt lat="44.79453" lon="5.48308">
        <ele>1589.2</ele>
        <time>2024-05-19T08:01:52Z</time>
      </trkpt>
      <trkpt lat="44.79446" lon="5.48303">
        <ele>1589.2</ele>
        <time>2024-05-19T08:01:59Z</time>
      </trkpt>
      <trkpt lat="44.79436" lon="5.48283">
        <ele>1589.68</ele>
        <time>2024-05-19T08:02:14Z</time>
      </trkpt>
      <trkpt lat="44.7943" lon="5.48257">
        <ele>1590.16</ele>
        <time>2024-05-19T08:02:30Z</time>
      </trkpt>
      <trkpt lat="44.7943" lon="5.48254">
        <ele>1590.16</ele>
        <time>2024-05-19T08:02:32Z</time>
      </trkpt>
      <trkpt lat="44.79422" lon="5.48233">
        <ele>1590.16</ele>
        <time>2024-05-19T08:02:47Z</time>
      </trkpt>
      <trkpt lat="44.79412" lon="5.48215">
        <ele>1590.64</ele>
        <time>2024-05-19T08:03:02Z</time>
      </trkpt>
      <trkpt lat="44.794" lon="5.48199">
        <ele>1590.64</ele>
        <time>2024-05-19T08:03:16Z</time>
      </trkpt>
      <trkpt lat="44.79386" lon="5.48176">
        <ele>1589.68</ele>
        <time>2024-05-19T08:03:34Z</time>
      </trkpt>
      <trkpt lat="44.79376" lon="5.48156">
        <ele>1589.68</ele>
        <time>2024-05-19T08:03:48Z</time>
      </trkpt>
      <trkpt lat="44.79375" lon="5.48152">
        <ele>1589.68</ele>
        <time>2024-05-19T08:03:50Z</time>
      </trkpt>
      <trkpt lat="44.79374" lon="5.48125">
        <ele>1589.68</ele>
        <time>2024-05-19T08:04:07Z</time>
      </trkpt>
      <trkpt lat="44.79374" lon="5.48122">
        <ele>1589.68</ele>
        <time>2024-05-19T08:04:09Z</time>
      </trkpt>
      <trkpt lat="44.79374" lon="5.48111">
        <ele>1591.12</ele>
        <time>2024-05-19T08:04:16Z</time>
      </trkpt>
      <trkpt lat="44.79374" lon="5.48086">
        <ele>1592.08</ele>
        <time>2024-05-19T08:04:33Z</time>
      </trkpt>
      <trkpt lat="44.79372" lon="5.48071">
        <ele>1594</ele>
        <time>2024-05-19T08:04:44Z</time>
      </trkpt>
      <trkpt lat="44.7937" lon="5.48069">
        <ele>1594</ele>
        <time>2024-05-19T08:04:46Z</time>
      </trkpt>
      <trkpt lat="44.79367" lon="5.48053">
        <ele>1594.48</ele>
        <time>2024-05-19T08:04:56Z</time>
      </trkpt>
      <trkpt lat="44.79369" lon="5.4803">
        <ele>1593.04</ele>
        <time>2024-05-19T08:05:10Z</time>
      </trkpt>
      <trkpt lat="44.79369" lon="5.48023">
        <ele>1593.04</ele>
        <time>2024-05-19T08:05:14Z</time>
      </trkpt>
      <trkpt lat="44.79369" lon="5.48001">
        <ele>1592.56</ele>
        <time>2024-05-19T08:05:32Z</time>
      </trkpt>
      <trkpt lat="44.79365" lon="5.48004">
        <ele>1592.56</ele>
        <time>2024-05-19T08:05:47Z</time>
      </trkpt>
      <trkpt lat="44.79362" lon="5.48003">
        <ele>1592.56</ele>
        <time>2024-05-19T08:06:01Z</time>
      </trkpt>
      <trkpt lat="44.79361" lon="5.48002">
        <ele>1592.56</ele>
        <time>2024-05-19T08:06:17Z</time>
      </trkpt>
      <trkpt lat="44.79357" lon="5.48002">
        <ele>1592.56</ele>
        <time>2024-05-19T08:06:34Z</time>
      </trkpt>
      <trkpt lat="44.79353" lon="5.48001">
        <ele>1592.08</ele>
        <time>2024-05-19T08:06:41Z</time>
      </trkpt>
      <trkpt lat="44.7935" lon="5.48">
        <ele>1592.08</ele>
        <time>2024-05-19T08:06:43Z</time>
      </trkpt>
      <trkpt lat="44.79333" lon="5.48012">
        <ele>1592.08</ele>
        <time>2024-05-19T08:07:00Z</time>
      </trkpt>
      <trkpt lat="44.79318" lon="5.48027">
        <ele>1592.08</ele>
        <time>2024-05-19T08:07:16Z</time>
      </trkpt>
      <trkpt lat="44.79302" lon="5.48028">
        <ele>1593.52</ele>
        <time>2024-05-19T08:07:31Z</time>
      </trkpt>
      <trkpt lat="44.7929" lon="5.48028">
        <ele>1594</ele>
        <time>2024-05-19T08:07:43Z</time>
      </trkpt>
      <trkpt lat="44.79286" lon="5.48029">
        <ele>1592.56</ele>
        <time>2024-05-19T08:07:47Z</time>
      </trkpt>
      <trkpt lat="44.79267" lon="5.4804">
        <ele>1592.08</ele>
        <time>2024-05-19T08:08:05Z</time>
      </trkpt>
      <trkpt lat="44.79263" lon="5.48041">
        <ele>1593.52</ele>
        <time>2024-05-19T08:08:09Z</time>
      </trkpt>
      <trkpt lat="44.79255" lon="5.48035">
        <ele>1594</ele>
        <time>2024-05-19T08:08:23Z</time>
      </trkpt>
      <trkpt lat="44.79251" lon="5.48035">
        <ele>1594</ele>
        <time>2024-05-19T08:09:54Z</time>
      </trkpt>
      <trkpt lat="44.79231" lon="5.48025">
        <ele>1594</ele>
        <time>2024-05-19T08:10:12Z</time>
      </trkpt>
      <trkpt lat="44.79214" lon="5.48009">
        <ele>1594</ele>
        <time>2024-05-19T08:10:28Z</time>
      </trkpt>
      <trkpt lat="44.792" lon="5.47993">
        <ele>1594.48</ele>
        <time>2024-05-19T08:10:44Z</time>
      </trkpt>
      <trkpt lat="44.79199" lon="5.47993">
        <ele>1594.48</ele>
        <time>2024-05-19T08:10:45Z</time>
      </trkpt>
      <trkpt lat="44.79184" lon="5.47976">
        <ele>1594.48</ele>
        <time>2024-05-19T08:11:02Z</time>
      </trkpt>
      <trkpt lat="44.79172" lon="5.47959">
        <ele>1594.48</ele>
        <time>2024-05-19T08:11:16Z</time>
      </trkpt>
      <trkpt lat="44.79161" lon="5.47937">
        <ele>1593.04</ele>
        <time>2024-05-19T08:11:32Z</time>
      </trkpt>
      <trkpt lat="44.79152" lon="5.47916">
        <ele>1592.56</ele>
        <time>2024-05-19T08:11:46Z</time>
      </trkpt>
      <trkpt lat="44.79146" lon="5.47904">
        <ele>1592.56</ele>
        <time>2024-05-19T08:11:55Z</time>
      </trkpt>
      <trkpt lat="44.79136" lon="5.47883">
        <ele>1592.56</ele>
        <time>2024-05-19T08:12:10Z</time>
      </trkpt>
      <trkpt lat="44.79132" lon="5.47877">
        <ele>1592.56</ele>
        <time>2024-05-19T08:12:15Z</time>
      </trkpt>
      <trkpt lat="44.79127" lon="5.4787">
        <ele>1592.56</ele>
        <time>2024-05-19T08:12:21Z</time>
      </trkpt>
      <trkpt lat="44.79111" lon="5.47848">
        <ele>1592.56</ele>
        <time>2024-05-19T08:12:39Z</time>
      </trkpt>
      <trkpt lat="44.79099" lon="5.47826">
        <ele>1592.08</ele>
        <time>2024-05-19T08:12:55Z</time>
      </trkpt>
      <trkpt lat="44.79088" lon="5.47805">
        <ele>1592.08</ele>
        <time>2024-05-19T08:13:11Z</time>
      </trkpt>
      <trkpt lat="44.79078" lon="5.47786">
        <ele>1592.08</ele>
        <time>2024-05-19T08:13:25Z</time>
      </trkpt>
      <trkpt lat="44.79075" lon="5.47781">
        <ele>1592.08</ele>
        <time>2024-05-19T08:13:29Z</time>
      </trkpt>
      <trkpt lat="44.79068" lon="5.47772">
        <ele>1592.08</ele>
        <time>2024-05-19T08:13:37Z</time>
      </trkpt>
      <trkpt lat="44.79057" lon="5.47755">
        <ele>1592.08</ele>
        <time>2024-05-19T08:13:52Z</time>
      </trkpt>
      <trkpt lat="44.79052" lon="5.47748">
        <ele>1592.08</ele>
        <time>2024-05-19T08:14:09Z</time>
      </trkpt>
      <trkpt lat="44.79049" lon="5.47745">
        <ele>1592.08</ele>
        <time>2024-05-19T08:14:38Z</time>
      </trkpt>
      <trkpt lat="44.79037" lon="5.47729">
        <ele>1591.6</ele>
        <time>2024-05-19T08:14:53Z</time>
      </trkpt>
      <trkpt lat="44.79021" lon="5.47705">
        <ele>1591.12</ele>
        <time>2024-05-19T08:15:13Z</time>
      </trkpt>
      <trkpt lat="44.79005" lon="5.47688">
        <ele>1591.12</ele>
        <time>2024-05-19T08:15:30Z</time>
      </trkpt>
      <trkpt lat="44.78995" lon="5.47678">
        <ele>1590.16</ele>
        <time>2024-05-19T08:15:45Z</time>
      </trkpt>
      <trkpt lat="44.78977" lon="5.47667">
        <ele>1589.68</ele>
        <time>2024-05-19T08:16:02Z</time>
      </trkpt>
      <trkpt lat="44.78959" lon="5.4767">
        <ele>1588.72</ele>
        <time>2024-05-19T08:16:17Z</time>
      </trkpt>
      <trkpt lat="44.78938" lon="5.47662">
        <ele>1587.75</ele>
        <time>2024-05-19T08:16:34Z</time>
      </trkpt>
      <trkpt lat="44.7893" lon="5.4766">
        <ele>1587.75</ele>
        <time>2024-05-19T08:16:47Z</time>
      </trkpt>
      <trkpt lat="44.78927" lon="5.47661">
        <ele>1588.72</ele>
        <time>2024-05-19T08:17:00Z</time>
      </trkpt>
      <trkpt lat="44.78925" lon="5.47662">
        <ele>1589.68</ele>
        <time>2024-05-19T08:17:06Z</time>
      </trkpt>
      <trkpt lat="44.78907" lon="5.47664">
        <ele>1588.72</ele>
        <time>2024-05-19T08:17:21Z</time>
      </trkpt>
      <trkpt lat="44.78892" lon="5.47673">
        <ele>1587.27</ele>
        <time>2024-05-19T08:17:38Z</time>
      </trkpt>
      <trkpt lat="44.78891" lon="5.47674">
        <ele>1586.79</ele>
        <time>2024-05-19T08:17:40Z</time>
      </trkpt>
      <trkpt lat="44.78874" lon="5.47666">
        <ele>1585.35</ele>
        <time>2024-05-19T08:17:55Z</time>
      </trkpt>
      <trkpt lat="44.78867" lon="5.47659">
        <ele>1585.35</ele>
        <time>2024-05-19T08:18:02Z</time>
      </trkpt>
      <trkpt lat="44.78858" lon="5.47634">
        <ele>1584.87</ele>
        <time>2024-05-19T08:18:19Z</time>
      </trkpt>
      <trkpt lat="44.78858" lon="5.47632">
        <ele>1584.87</ele>
        <time>2024-05-19T08:18:35Z</time>
      </trkpt>
      <trkpt lat="44.78855" lon="5.47627">
        <ele>1584.87</ele>
        <time>2024-05-19T08:18:56Z</time>
      </trkpt>
      <trkpt lat="44.78852" lon="5.47618">
        <ele>1584.87</ele>
        <time>2024-05-19T08:19:02Z</time>
      </trkpt>
      <trkpt lat="44.7885" lon="5.47593">
        <ele>1584.87</ele>
        <time>2024-05-19T08:19:17Z</time>
      </trkpt>
      <trkpt lat="44.78848" lon="5.47579">
        <ele>1584.87</ele>
        <time>2024-05-19T08:19:26Z</time>
      </trkpt>
      <trkpt lat="44.78847" lon="5.47565">
        <ele>1585.83</ele>
        <time>2024-05-19T08:19:36Z</time>
      </trkpt>
      <trkpt lat="44.78846" lon="5.47562">
        <ele>1586.31</ele>
        <time>2024-05-19T08:19:38Z</time>
      </trkpt>
      <trkpt lat="44.7884" lon="5.47532">
        <ele>1586.79</ele>
        <time>2024-05-19T08:19:56Z</time>
      </trkpt>
      <trkpt lat="44.78836" lon="5.47512">
        <ele>1587.75</ele>
        <time>2024-05-19T08:20:09Z</time>
      </trkpt>
      <trkpt lat="44.78831" lon="5.47504">
        <ele>1588.24</ele>
        <time>2024-05-19T08:20:15Z</time>
      </trkpt>
      <trkpt lat="44.78829" lon="5.47499">
        <ele>1588.72</ele>
        <time>2024-05-19T08:20:19Z</time>
      </trkpt>
      <trkpt lat="44.78824" lon="5.4748">
        <ele>1590.64</ele>
        <time>2024-05-19T08:20:33Z</time>
      </trkpt>
      <trkpt lat="44.7882" lon="5.47459">
        <ele>1590.64</ele>
        <time>2024-05-19T08:20:47Z</time>
      </trkpt>
      <trkpt lat="44.78811" lon="5.47443">
        <ele>1591.12</ele>
        <time>2024-05-19T08:21:00Z</time>
      </trkpt>
      <trkpt lat="44.78809" lon="5.47437">
        <ele>1592.08</ele>
        <time>2024-05-19T08:21:04Z</time>
      </trkpt>
      <trkpt lat="44.78806" lon="5.47425">
        <ele>1593.04</ele>
        <time>2024-05-19T08:21:13Z</time>
      </trkpt>
      <trkpt lat="44.78796" lon="5.4741">
        <ele>1594.48</ele>
        <time>2024-05-19T08:21:28Z</time>
      </trkpt>
      <trkpt lat="44.78789" lon="5.47393">
        <ele>1595.45</ele>
        <time>2024-05-19T08:21:44Z</time>
      </trkpt>
      <trkpt lat="44.78787" lon="5.47386">
        <ele>1595.45</ele>
        <time>2024-05-19T08:21:50Z</time>
      </trkpt>
      <trkpt lat="44.78781" lon="5.47368">
        <ele>1595.45</ele>
        <time>2024-05-19T08:22:06Z</time>
      </trkpt>
      <trkpt lat="44.78781" lon="5.47356">
        <ele>1593.04</ele>
        <time>2024-05-19T08:22:18Z</time>
      </trkpt>
      <trkpt lat="44.78777" lon="5.47341">
        <ele>1591.6</ele>
        <time>2024-05-19T08:22:32Z</time>
      </trkpt>
      <trkpt lat="44.78776" lon="5.47327">
        <ele>1590.64</ele>
        <time>2024-05-19T08:22:42Z</time>
      </trkpt>
      <trkpt lat="44.78777" lon="5.47308">
        <ele>1590.16</ele>
        <time>2024-05-19T08:22:57Z</time>
      </trkpt>
      <trkpt lat="44.78781" lon="5.47284">
        <ele>1588.24</ele>
        <time>2024-05-19T08:23:14Z</time>
      </trkpt>
      <trkpt lat="44.78784" lon="5.4726">
        <ele>1588.24</ele>
        <time>2024-05-19T08:23:28Z</time>
      </trkpt>
      <trkpt lat="44.78786" lon="5.47235">
        <ele>1588.24</ele>
        <time>2024-05-19T08:23:42Z</time>
      </trkpt>
      <trkpt lat="44.78787" lon="5.47227">
        <ele>1589.2</ele>
        <time>2024-05-19T08:23:48Z</time>
      </trkpt>
      <trkpt lat="44.78787" lon="5.47218">
        <ele>1590.64</ele>
        <time>2024-05-19T08:23:55Z</time>
      </trkpt>
      <trkpt lat="44.78786" lon="5.4721">
        <ele>1591.6</ele>
        <time>2024-05-19T08:24:01Z</time>
      </trkpt>
      <trkpt lat="44.78785" lon="5.47206">
        <ele>1592.08</ele>
        <time>2024-05-19T08:24:04Z</time>
      </trkpt>
      <trkpt lat="44.78783" lon="5.47201">
        <ele>1592.56</ele>
        <time>2024-05-19T08:24:08Z</time>
      </trkpt>
      <trkpt lat="44.78778" lon="5.47191">
        <ele>1592.56</ele>
        <time>2024-05-19T08:24:16Z</time>
      </trkpt>
      <trkpt lat="44.78768" lon="5.47172">
        <ele>1592.56</ele>
        <time>2024-05-19T08:24:32Z</time>
      </trkpt>
      <trkpt lat="44.78762" lon="5.47159">
        <ele>1593.04</ele>
        <time>2024-05-19T08:24:44Z</time>
      </trkpt>
      <trkpt lat="44.78755" lon="5.47149">
        <ele>1594</ele>
        <time>2024-05-19T08:24:52Z</time>
      </trkpt>
      <trkpt lat="44.78754" lon="5.47143">
        <ele>1594.48</ele>
        <time>2024-05-19T08:24:56Z</time>
      </trkpt>
      <trkpt lat="44.78752" lon="5.47139">
        <ele>1594.48</ele>
        <time>2024-05-19T08:24:59Z</time>
      </trkpt>
      <trkpt lat="44.78735" lon="5.47128">
        <ele>1594.96</ele>
        <time>2024-05-19T08:25:18Z</time>
      </trkpt>
      <trkpt lat="44.78719" lon="5.47115">
        <ele>1595.45</ele>
        <time>2024-05-19T08:25:35Z</time>
      </trkpt>
      <trkpt lat="44.78705" lon="5.47105">
        <ele>1595.45</ele>
        <time>2024-05-19T08:25:50Z</time>
      </trkpt>
      <trkpt lat="44.78689" lon="5.47098">
        <ele>1597.37</ele>
        <time>2024-05-19T08:26:06Z</time>
      </trkpt>
      <trkpt lat="44.78677" lon="5.47093">
        <ele>1598.81</ele>
        <time>2024-05-19T08:26:19Z</time>
      </trkpt>
      <trkpt lat="44.78668" lon="5.47086">
        <ele>1599.29</ele>
        <time>2024-05-19T08:26:29Z</time>
      </trkpt>
      <trkpt lat="44.78664" lon="5.47081">
        <ele>1599.77</ele>
        <time>2024-05-19T08:26:34Z</time>
      </trkpt>
      <trkpt lat="44.7866" lon="5.47077">
        <ele>1600.25</ele>
        <time>2024-05-19T08:26:40Z</time>
      </trkpt>
      <trkpt lat="44.7865" lon="5.47063">
        <ele>1601.69</ele>
        <time>2024-05-19T08:26:54Z</time>
      </trkpt>
      <trkpt lat="44.78649" lon="5.47061">
        <ele>1602.17</ele>
        <time>2024-05-19T08:26:56Z</time>
      </trkpt>
      <trkpt lat="44.78637" lon="5.47047">
        <ele>1604.1</ele>
        <time>2024-05-19T08:27:13Z</time>
      </trkpt>
      <trkpt lat="44.78631" lon="5.47039">
        <ele>1604.58</ele>
        <time>2024-05-19T08:27:22Z</time>
      </trkpt>
      <trkpt lat="44.78625" lon="5.4703">
        <ele>1605.06</ele>
        <time>2024-05-19T08:27:31Z</time>
      </trkpt>
      <trkpt lat="44.78622" lon="5.47028">
        <ele>1605.06</ele>
        <time>2024-05-19T08:27:34Z</time>
      </trkpt>
      <trkpt lat="44.78614" lon="5.47023">
        <ele>1605.54</ele>
        <time>2024-05-19T08:27:43Z</time>
      </trkpt>
      <trkpt lat="44.78607" lon="5.47007">
        <ele>1606.98</ele>
        <time>2024-05-19T08:27:59Z</time>
      </trkpt>
      <trkpt lat="44.78606" lon="5.47004">
        <ele>1606.98</ele>
        <time>2024-05-19T08:28:02Z</time>
      </trkpt>
      <trkpt lat="44.78605" lon="5.46997">
        <ele>1607.46</ele>
        <time>2024-05-19T08:28:10Z</time>
      </trkpt>
      <trkpt lat="44.78605" lon="5.46989">
        <ele>1607.46</ele>
        <time>2024-05-19T08:28:15Z</time>
      </trkpt>
      <trkpt lat="44.78603" lon="5.46967">
        <ele>1609.38</ele>
        <time>2024-05-19T08:28:31Z</time>
      </trkpt>
      <trkpt lat="44.786" lon="5.4695">
        <ele>1610.83</ele>
        <time>2024-05-19T08:28:45Z</time>
      </trkpt>
      <trkpt lat="44.78595" lon="5.46933">
        <ele>1612.75</ele>
        <time>2024-05-19T08:29:00Z</time>
      </trkpt>
      <trkpt lat="44.78589" lon="5.46924">
        <ele>1613.71</ele>
        <time>2024-05-19T08:29:12Z</time>
      </trkpt>
      <trkpt lat="44.78586" lon="5.46921">
        <ele>1614.19</ele>
        <time>2024-05-19T08:29:16Z</time>
      </trkpt>
      <trkpt lat="44.78577" lon="5.46913">
        <ele>1616.11</ele>
        <time>2024-05-19T08:29:31Z</time>
      </trkpt>
      <trkpt lat="44.7857" lon="5.46921">
        <ele>1618.04</ele>
        <time>2024-05-19T08:29:47Z</time>
      </trkpt>
      <trkpt lat="44.78558" lon="5.4693">
        <ele>1620.44</ele>
        <time>2024-05-19T08:30:05Z</time>
      </trkpt>
      <trkpt lat="44.78553" lon="5.46942">
        <ele>1621.4</ele>
        <time>2024-05-19T08:30:20Z</time>
      </trkpt>
      <trkpt lat="44.78548" lon="5.46956">
        <ele>1623.32</ele>
        <time>2024-05-19T08:30:35Z</time>
      </trkpt>
      <trkpt lat="44.78552" lon="5.46976">
        <ele>1624.28</ele>
        <time>2024-05-19T08:30:52Z</time>
      </trkpt>
      <trkpt lat="44.78544" lon="5.4699">
        <ele>1625.25</ele>
        <time>2024-05-19T08:31:06Z</time>
      </trkpt>
      <trkpt lat="44.78536" lon="5.46994">
        <ele>1627.17</ele>
        <time>2024-05-19T08:31:19Z</time>
      </trkpt>
      <trkpt lat="44.78528" lon="5.47005">
        <ele>1630.05</ele>
        <time>2024-05-19T08:31:35Z</time>
      </trkpt>
      <trkpt lat="44.78519" lon="5.47008">
        <ele>1632.46</ele>
        <time>2024-05-19T08:31:49Z</time>
      </trkpt>
      <trkpt lat="44.78513" lon="5.47019">
        <ele>1634.38</ele>
        <time>2024-05-19T08:32:04Z</time>
      </trkpt>
      <trkpt lat="44.78506" lon="5.47029">
        <ele>1636.78</ele>
        <time>2024-05-19T08:32:21Z</time>
      </trkpt>
      <trkpt lat="44.78499" lon="5.47029">
        <ele>1639.67</ele>
        <time>2024-05-19T08:32:39Z</time>
      </trkpt>
      <trkpt lat="44.78494" lon="5.47032">
        <ele>1642.07</ele>
        <time>2024-05-19T08:32:52Z</time>
      </trkpt>
      <trkpt lat="44.78489" lon="5.47037">
        <ele>1643.99</ele>
        <time>2024-05-19T08:33:07Z</time>
      </trkpt>
      <trkpt lat="44.78481" lon="5.4704">
        <ele>1647.36</ele>
        <time>2024-05-19T08:33:23Z</time>
      </trkpt>
      <trkpt lat="44.78473" lon="5.47042">
        <ele>1649.28</ele>
        <time>2024-05-19T08:33:37Z</time>
      </trkpt>
      <trkpt lat="44.78466" lon="5.47045">
        <ele>1650.72</ele>
        <time>2024-05-19T08:33:52Z</time>
      </trkpt>
      <trkpt lat="44.78457" lon="5.47046">
        <ele>1653.6</ele>
        <time>2024-05-19T08:34:08Z</time>
      </trkpt>
      <trkpt lat="44.78449" lon="5.4705">
        <ele>1655.05</ele>
        <time>2024-05-19T08:34:22Z</time>
      </trkpt>
      <trkpt lat="44.78445" lon="5.47057">
        <ele>1656.97</ele>
        <time>2024-05-19T08:34:36Z</time>
      </trkpt>
      <trkpt lat="44.78439" lon="5.4706">
        <ele>1659.37</ele>
        <time>2024-05-19T08:34:49Z</time>
      </trkpt>
      <trkpt lat="44.78436" lon="5.47072">
        <ele>1660.81</ele>
        <time>2024-05-19T08:35:04Z</time>
      </trkpt>
      <trkpt lat="44.78431" lon="5.47078">
        <ele>1662.26</ele>
        <time>2024-05-19T08:35:15Z</time>
      </trkpt>
      <trkpt lat="44.78425" lon="5.47081">
        <ele>1663.7</ele>
        <time>2024-05-19T08:35:29Z</time>
      </trkpt>
      <trkpt lat="44.78417" lon="5.47078">
        <ele>1665.14</ele>
        <time>2024-05-19T08:35:41Z</time>
      </trkpt>
      <trkpt lat="44.78408" lon="5.47074">
        <ele>1667.54</ele>
        <time>2024-05-19T08:35:58Z</time>
      </trkpt>
      <trkpt lat="44.78399" lon="5.47072">
        <ele>1670.43</ele>
        <time>2024-05-19T08:36:15Z</time>
      </trkpt>
      <trkpt lat="44.78393" lon="5.47072">
        <ele>1672.35</ele>
        <time>2024-05-19T08:36:30Z</time>
      </trkpt>
      <trkpt lat="44.7839" lon="5.47075">
        <ele>1674.27</ele>
        <time>2024-05-19T08:36:42Z</time>
      </trkpt>
      <trkpt lat="44.78386" lon="5.47067">
        <ele>1675.23</ele>
        <time>2024-05-19T08:36:55Z</time>
      </trkpt>
      <trkpt lat="44.78381" lon="5.47057">
        <ele>1677.16</ele>
        <time>2024-05-19T08:37:11Z</time>
      </trkpt>
      <trkpt lat="44.78376" lon="5.47059">
        <ele>1680.04</ele>
        <time>2024-05-19T08:37:26Z</time>
      </trkpt>
      <trkpt lat="44.78371" lon="5.47066">
        <ele>1681.48</ele>
        <time>2024-05-19T08:40:39Z</time>
      </trkpt>
      <trkpt lat="44.78363" lon="5.47076">
        <ele>1683.41</ele>
        <time>2024-05-19T08:40:58Z</time>
      </trkpt>
      <trkpt lat="44.78356" lon="5.47077">
        <ele>1686.29</ele>
        <time>2024-05-19T08:41:12Z</time>
      </trkpt>
      <trkpt lat="44.78348" lon="5.47072">
        <ele>1688.69</ele>
        <time>2024-05-19T08:41:28Z</time>
      </trkpt>
      <trkpt lat="44.78345" lon="5.47075">
        <ele>1689.65</ele>
        <time>2024-05-19T08:41:41Z</time>
      </trkpt>
      <trkpt lat="44.78343" lon="5.47078">
        <ele>1690.14</ele>
        <time>2024-05-19T08:43:50Z</time>
      </trkpt>
      <trkpt lat="44.78335" lon="5.47072">
        <ele>1693.02</ele>
        <time>2024-05-19T08:44:06Z</time>
      </trkpt>
      <trkpt lat="44.78327" lon="5.47071">
        <ele>1695.9</ele>
        <time>2024-05-19T08:44:23Z</time>
      </trkpt>
      <trkpt lat="44.78319" lon="5.47071">
        <ele>1697.34</ele>
        <time>2024-05-19T08:44:39Z</time>
      </trkpt>
      <trkpt lat="44.78312" lon="5.47069">
        <ele>1700.23</ele>
        <time>2024-05-19T08:44:52Z</time>
      </trkpt>
      <trkpt lat="44.78309" lon="5.47063">
        <ele>1701.19</ele>
        <time>2024-05-19T08:45:03Z</time>
      </trkpt>
      <trkpt lat="44.78302" lon="5.47059">
        <ele>1704.55</ele>
        <time>2024-05-19T08:45:19Z</time>
      </trkpt>
      <trkpt lat="44.78299" lon="5.47053">
        <ele>1706.48</ele>
        <time>2024-05-19T08:45:33Z</time>
      </trkpt>
      <trkpt lat="44.78297" lon="5.47043">
        <ele>1709.36</ele>
        <time>2024-05-19T08:45:48Z</time>
      </trkpt>
      <trkpt lat="44.78294" lon="5.4704">
        <ele>1711.28</ele>
        <time>2024-05-19T08:46:03Z</time>
      </trkpt>
      <trkpt lat="44.78288" lon="5.47037">
        <ele>1714.17</ele>
        <time>2024-05-19T08:46:22Z</time>
      </trkpt>
      <trkpt lat="44.78283" lon="5.47032">
        <ele>1716.57</ele>
        <time>2024-05-19T08:46:38Z</time>
      </trkpt>
      <trkpt lat="44.78279" lon="5.47031">
        <ele>1718.49</ele>
        <time>2024-05-19T08:46:49Z</time>
      </trkpt>
      <trkpt lat="44.78275" lon="5.47031">
        <ele>1720.9</ele>
        <time>2024-05-19T08:47:05Z</time>
      </trkpt>
      <trkpt lat="44.78272" lon="5.47024">
        <ele>1723.3</ele>
        <time>2024-05-19T08:47:19Z</time>
      </trkpt>
      <trkpt lat="44.78268" lon="5.47021">
        <ele>1725.7</ele>
        <time>2024-05-19T08:47:36Z</time>
      </trkpt>
      <trkpt lat="44.78264" lon="5.47017">
        <ele>1728.11</ele>
        <time>2024-05-19T08:47:48Z</time>
      </trkpt>
      <trkpt lat="44.78259" lon="5.47013">
        <ele>1730.51</ele>
        <time>2024-05-19T08:48:04Z</time>
      </trkpt>
      <trkpt lat="44.78256" lon="5.47009">
        <ele>1732.43</ele>
        <time>2024-05-19T08:48:18Z</time>
      </trkpt>
      <trkpt lat="44.78253" lon="5.47007">
        <ele>1734.36</ele>
        <time>2024-05-19T08:48:32Z</time>
      </trkpt>
      <trkpt lat="44.78251" lon="5.47001">
        <ele>1736.28</ele>
        <time>2024-05-19T08:48:46Z</time>
      </trkpt>
      <trkpt lat="44.78249" lon="5.46996">
        <ele>1737.72</ele>
        <time>2024-05-19T08:49:01Z</time>
      </trkpt>
      <trkpt lat="44.78247" lon="5.46992">
        <ele>1739.64</ele>
        <time>2024-05-19T08:49:14Z</time>
      </trkpt>
      <trkpt lat="44.78244" lon="5.46988">
        <ele>1741.08</ele>
        <time>2024-05-19T08:49:30Z</time>
      </trkpt>
      <trkpt lat="44.78239" lon="5.46986">
        <ele>1743.01</ele>
        <time>2024-05-19T08:49:47Z</time>
      </trkpt>
      <trkpt lat="44.78235" lon="5.46986">
        <ele>1745.41</ele>
        <time>2024-05-19T08:50:04Z</time>
      </trkpt>
      <trkpt lat="44.78229" lon="5.46985">
        <ele>1747.81</ele>
        <time>2024-05-19T08:50:18Z</time>
      </trkpt>
      <trkpt lat="44.78222" lon="5.46983">
        <ele>1750.22</ele>
        <time>2024-05-19T08:50:34Z</time>
      </trkpt>
      <trkpt lat="44.78218" lon="5.46981">
        <ele>1752.14</ele>
        <time>2024-05-19T08:50:48Z</time>
      </trkpt>
      <trkpt lat="44.78217" lon="5.4698">
        <ele>1753.1</ele>
        <time>2024-05-19T08:51:02Z</time>
      </trkpt>
      <trkpt lat="44.78214" lon="5.46981">
        <ele>1753.58</ele>
        <time>2024-05-19T08:51:16Z</time>
      </trkpt>
      <trkpt lat="44.78214" lon="5.46978">
        <ele>1753.58</ele>
        <time>2024-05-19T08:51:31Z</time>
      </trkpt>
      <trkpt lat="44.78218" lon="5.46975">
        <ele>1753.58</ele>
        <time>2024-05-19T08:51:47Z</time>
      </trkpt>
      <trkpt lat="44.78219" lon="5.46975">
        <ele>1752.14</ele>
        <time>2024-05-19T08:51:49Z</time>
      </trkpt>
      <trkpt lat="44.78219" lon="5.46968">
        <ele>1754.06</ele>
        <time>2024-05-19T08:52:04Z</time>
      </trkpt>
      <trkpt lat="44.78214" lon="5.46966">
        <ele>1757.43</ele>
        <time>2024-05-19T08:52:19Z</time>
      </trkpt>
      <trkpt lat="44.78209" lon="5.46963">
        <ele>1760.79</ele>
        <time>2024-05-19T08:52:38Z</time>
      </trkpt>
      <trkpt lat="44.78206" lon="5.46959">
        <ele>1762.71</ele>
        <time>2024-05-19T08:52:53Z</time>
      </trkpt>
      <trkpt lat="44.78206" lon="5.46957">
        <ele>1764.64</ele>
        <time>2024-05-19T08:53:10Z</time>
      </trkpt>
      <trkpt lat="44.78203" lon="5.46949">
        <ele>1766.08</ele>
        <time>2024-05-19T08:53:24Z</time>
      </trkpt>
      <trkpt lat="44.78199" lon="5.46944">
        <ele>1768.48</ele>
        <time>2024-05-19T08:53:37Z</time>
      </trkpt>
      <trkpt lat="44.78194" lon="5.4694">
        <ele>1770.89</ele>
        <time>2024-05-19T08:53:51Z</time>
      </trkpt>
      <trkpt lat="44.78187" lon="5.46937">
        <ele>1772.33</ele>
        <time>2024-05-19T08:54:06Z</time>
      </trkpt>
      <trkpt lat="44.78182" lon="5.46933">
        <ele>1772.33</ele>
        <time>2024-05-19T08:54:22Z</time>
      </trkpt>
      <trkpt lat="44.78179" lon="5.46927">
        <ele>1775.21</ele>
        <time>2024-05-19T08:54:35Z</time>
      </trkpt>
      <trkpt lat="44.78173" lon="5.46919">
        <ele>1777.13</ele>
        <time>2024-05-19T08:54:50Z</time>
      </trkpt>
      <trkpt lat="44.78167" lon="5.46914">
        <ele>1779.06</ele>
        <time>2024-05-19T08:55:06Z</time>
      </trkpt>
      <trkpt lat="44.78163" lon="5.46908">
        <ele>1781.46</ele>
        <time>2024-05-19T08:55:19Z</time>
      </trkpt>
      <trkpt lat="44.78159" lon="5.46905">
        <ele>1783.38</ele>
        <time>2024-05-19T08:55:32Z</time>
      </trkpt>
      <trkpt lat="44.78152" lon="5.46902">
        <ele>1784.82</ele>
        <time>2024-05-19T08:55:45Z</time>
      </trkpt>
      <trkpt lat="44.78146" lon="5.46898">
        <ele>1786.27</ele>
        <time>2024-05-19T08:56:00Z</time>
      </trkpt>
      <trkpt lat="44.78142" lon="5.46898">
        <ele>1786.75</ele>
        <time>2024-05-19T08:56:15Z</time>
      </trkpt>
      <trkpt lat="44.78134" lon="5.46895">
        <ele>1788.67</ele>
        <time>2024-05-19T08:56:29Z</time>
      </trkpt>
      <trkpt lat="44.78133" lon="5.4689">
        <ele>1790.59</ele>
        <time>2024-05-19T08:56:42Z</time>
      </trkpt>
      <trkpt lat="44.78131" lon="5.46889">
        <ele>1793</ele>
        <time>2024-05-19T08:56:56Z</time>
      </trkpt>
      <trkpt lat="44.78127" lon="5.46885">
        <ele>1794.44</ele>
        <time>2024-05-19T08:57:10Z</time>
      </trkpt>
      <trkpt lat="44.78122" lon="5.46882">
        <ele>1796.36</ele>
        <time>2024-05-19T08:57:24Z</time>
      </trkpt>
      <trkpt lat="44.78122" lon="5.46874">
        <ele>1798.76</ele>
        <time>2024-05-19T08:57:39Z</time>
      </trkpt>
      <trkpt lat="44.78118" lon="5.46872">
        <ele>1801.17</ele>
        <time>2024-05-19T08:57:53Z</time>
      </trkpt>
      <trkpt lat="44.78113" lon="5.46864">
        <ele>1803.09</ele>
        <time>2024-05-19T08:58:08Z</time>
      </trkpt>
      <trkpt lat="44.78114" lon="5.46855">
        <ele>1805.97</ele>
        <time>2024-05-19T08:58:24Z</time>
      </trkpt>
      <trkpt lat="44.78113" lon="5.46852">
        <ele>1807.42</ele>
        <time>2024-05-19T08:58:37Z</time>
      </trkpt>
      <trkpt lat="44.78112" lon="5.46846">
        <ele>1809.82</ele>
        <time>2024-05-19T08:58:54Z</time>
      </trkpt>
      <trkpt lat="44.78107" lon="5.46841">
        <ele>1812.7</ele>
        <time>2024-05-19T08:59:11Z</time>
      </trkpt>
      <trkpt lat="44.78102" lon="5.46838">
        <ele>1815.59</ele>
        <time>2024-05-19T08:59:27Z</time>
      </trkpt>
      <trkpt lat="44.78099" lon="5.46834">
        <ele>1817.51</ele>
        <time>2024-05-19T08:59:40Z</time>
      </trkpt>
      <trkpt lat="44.78098" lon="5.46827">
        <ele>1819.91</ele>
        <time>2024-05-19T08:59:56Z</time>
      </trkpt>
      <trkpt lat="44.78095" lon="5.46826">
        <ele>1821.84</ele>
        <time>2024-05-19T09:00:13Z</time>
      </trkpt>
      <trkpt lat="44.78096" lon="5.4682">
        <ele>1823.28</ele>
        <time>2024-05-19T09:00:27Z</time>
      </trkpt>
      <trkpt lat="44.78093" lon="5.46815">
        <ele>1825.68</ele>
        <time>2024-05-19T09:00:40Z</time>
      </trkpt>
      <trkpt lat="44.78089" lon="5.46811">
        <ele>1828.08</ele>
        <time>2024-05-19T09:00:57Z</time>
      </trkpt>
      <trkpt lat="44.78085" lon="5.46809">
        <ele>1830.01</ele>
        <time>2024-05-19T09:01:11Z</time>
      </trkpt>
      <trkpt lat="44.78081" lon="5.46803">
        <ele>1832.41</ele>
        <time>2024-05-19T09:01:26Z</time>
      </trkpt>
      <trkpt lat="44.78079" lon="5.46798">
        <ele>1834.81</ele>
        <time>2024-05-19T09:01:39Z</time>
      </trkpt>
      <trkpt lat="44.78075" lon="5.46792">
        <ele>1837.7</ele>
        <time>2024-05-19T09:01:56Z</time>
      </trkpt>
      <trkpt lat="44.78069" lon="5.46784">
        <ele>1839.62</ele>
        <time>2024-05-19T09:02:13Z</time>
      </trkpt>
      <trkpt lat="44.78064" lon="5.46778">
        <ele>1842.02</ele>
        <time>2024-05-19T09:02:28Z</time>
      </trkpt>
      <trkpt lat="44.78064" lon="5.46772">
        <ele>1844.43</ele>
        <time>2024-05-19T09:02:42Z</time>
      </trkpt>
      <trkpt lat="44.78062" lon="5.4677">
        <ele>1845.87</ele>
        <time>2024-05-19T09:02:57Z</time>
      </trkpt>
      <trkpt lat="44.78057" lon="5.46765">
        <ele>1847.31</ele>
        <time>2024-05-19T09:03:21Z</time>
      </trkpt>
      <trkpt lat="44.78052" lon="5.46757">
        <ele>1850.19</ele>
        <time>2024-05-19T09:03:38Z</time>
      </trkpt>
      <trkpt lat="44.78053" lon="5.46753">
        <ele>1851.16</ele>
        <time>2024-05-19T09:03:53Z</time>
      </trkpt>
      <trkpt lat="44.78053" lon="5.46749">
        <ele>1852.6</ele>
        <time>2024-05-19T09:04:08Z</time>
      </trkpt>
      <trkpt lat="44.78047" lon="5.46743">
        <ele>1855</ele>
        <time>2024-05-19T09:04:23Z</time>
      </trkpt>
      <trkpt lat="44.78038" lon="5.46735">
        <ele>1855.96</ele>
        <time>2024-05-19T09:04:38Z</time>
      </trkpt>
      <trkpt lat="44.78033" lon="5.46727">
        <ele>1857.89</ele>
        <time>2024-05-19T09:04:51Z</time>
      </trkpt>
      <trkpt lat="44.78029" lon="5.4672">
        <ele>1860.29</ele>
        <time>2024-05-19T09:05:06Z</time>
      </trkpt>
      <trkpt lat="44.78023" lon="5.46713">
        <ele>1861.73</ele>
        <time>2024-05-19T09:05:20Z</time>
      </trkpt>
      <trkpt lat="44.78018" lon="5.46707">
        <ele>1863.17</ele>
        <time>2024-05-19T09:05:35Z</time>
      </trkpt>
      <trkpt lat="44.78014" lon="5.46699">
        <ele>1865.58</ele>
        <time>2024-05-19T09:05:50Z</time>
      </trkpt>
      <trkpt lat="44.78008" lon="5.4669">
        <ele>1867.5</ele>
        <time>2024-05-19T09:06:07Z</time>
      </trkpt>
      <trkpt lat="44.78003" lon="5.46685">
        <ele>1868.46</ele>
        <time>2024-05-19T09:06:23Z</time>
      </trkpt>
      <trkpt lat="44.77997" lon="5.46676">
        <ele>1868.94</ele>
        <time>2024-05-19T09:06:37Z</time>
      </trkpt>
      <trkpt lat="44.77992" lon="5.46667">
        <ele>1871.34</ele>
        <time>2024-05-19T09:06:53Z</time>
      </trkpt>
      <trkpt lat="44.77987" lon="5.4666">
        <ele>1872.79</ele>
        <time>2024-05-19T09:07:05Z</time>
      </trkpt>
      <trkpt lat="44.77982" lon="5.46653">
        <ele>1874.23</ele>
        <time>2024-05-19T09:07:21Z</time>
      </trkpt>
      <trkpt lat="44.77981" lon="5.46647">
        <ele>1876.63</ele>
        <time>2024-05-19T09:07:35Z</time>
      </trkpt>
      <trkpt lat="44.77976" lon="5.46641">
        <ele>1877.11</ele>
        <time>2024-05-19T09:07:45Z</time>
      </trkpt>
      <trkpt lat="44.77976" lon="5.46634">
        <ele>1879.51</ele>
        <time>2024-05-19T09:07:59Z</time>
      </trkpt>
      <trkpt lat="44.77975" lon="5.4663">
        <ele>1880.48</ele>
        <time>2024-05-19T09:08:18Z</time>
      </trkpt>
      <trkpt lat="44.77967" lon="5.46627">
        <ele>1879.03</ele>
        <time>2024-05-19T09:08:35Z</time>
      </trkpt>
      <trkpt lat="44.77963" lon="5.46621">
        <ele>1880.48</ele>
        <time>2024-05-19T09:08:44Z</time>
      </trkpt>
      <trkpt lat="44.77957" lon="5.46613">
        <ele>1881.92</ele>
        <time>2024-05-19T09:08:59Z</time>
      </trkpt>
      <trkpt lat="44.77955" lon="5.46608">
        <ele>1883.84</ele>
        <time>2024-05-19T09:09:12Z</time>
      </trkpt>
      <trkpt lat="44.77952" lon="5.46605">
        <ele>1884.8</ele>
        <time>2024-05-19T09:09:26Z</time>
      </trkpt>
      <trkpt lat="44.77952" lon="5.46605">
        <ele>1884.8</ele>
        <time>2024-05-19T09:09:47Z</time>
      </trkpt>
      <trkpt lat="44.77951" lon="5.46604">
        <ele>1885.28</ele>
        <time>2024-05-19T09:10:14Z</time>
      </trkpt>
      <trkpt lat="44.77942" lon="5.46597">
        <ele>1885.76</ele>
        <time>2024-05-19T09:10:28Z</time>
      </trkpt>
      <trkpt lat="44.77934" lon="5.46592">
        <ele>1887.21</ele>
        <time>2024-05-19T09:10:43Z</time>
      </trkpt>
      <trkpt lat="44.77932" lon="5.46588">
        <ele>1890.09</ele>
        <time>2024-05-19T09:10:58Z</time>
      </trkpt>
      <trkpt lat="44.77928" lon="5.46582">
        <ele>1891.53</ele>
        <time>2024-05-19T09:11:12Z</time>
      </trkpt>
      <trkpt lat="44.77927" lon="5.46575">
        <ele>1893.45</ele>
        <time>2024-05-19T09:11:27Z</time>
      </trkpt>
      <trkpt lat="44.77923" lon="5.46566">
        <ele>1894.42</ele>
        <time>2024-05-19T09:11:41Z</time>
      </trkpt>
      <trkpt lat="44.7792" lon="5.46556">
        <ele>1895.38</ele>
        <time>2024-05-19T09:11:56Z</time>
      </trkpt>
      <trkpt lat="44.77918" lon="5.46546">
        <ele>1896.34</ele>
        <time>2024-05-19T09:12:10Z</time>
      </trkpt>
      <trkpt lat="44.77919" lon="5.46537">
        <ele>1896.82</ele>
        <time>2024-05-19T09:12:23Z</time>
      </trkpt>
      <trkpt lat="44.77914" lon="5.46524">
        <ele>1897.3</ele>
        <time>2024-05-19T09:12:39Z</time>
      </trkpt>
      <trkpt lat="44.77912" lon="5.46521">
        <ele>1896.34</ele>
        <time>2024-05-19T09:12:42Z</time>
      </trkpt>
      <trkpt lat="44.77911" lon="5.46512">
        <ele>1897.78</ele>
        <time>2024-05-19T09:29:17Z</time>
      </trkpt>
      <trkpt lat="44.77908" lon="5.4651">
        <ele>1897.78</ele>
        <time>2024-05-19T09:29:40Z</time>
      </trkpt>
      <trkpt lat="44.77904" lon="5.46508">
        <ele>1898.26</ele>
        <time>2024-05-19T09:30:00Z</time>
      </trkpt>
      <trkpt lat="44.77901" lon="5.46506">
        <ele>1898.26</ele>
        <time>2024-05-19T09:30:04Z</time>
      </trkpt>
      <trkpt lat="44.7789" lon="5.46498">
        <ele>1899.7</ele>
        <time>2024-05-19T09:30:22Z</time>
      </trkpt>
      <trkpt lat="44.77883" lon="5.46497">
        <ele>1902.11</ele>
        <time>2024-05-19T09:30:36Z</time>
      </trkpt>
      <trkpt lat="44.77875" lon="5.46493">
        <ele>1904.99</ele>
        <time>2024-05-19T09:30:53Z</time>
      </trkpt>
      <trkpt lat="44.77868" lon="5.46482">
        <ele>1906.91</ele>
        <time>2024-05-19T09:31:09Z</time>
      </trkpt>
      <trkpt lat="44.77863" lon="5.46466">
        <ele>1906.91</ele>
        <time>2024-05-19T09:31:22Z</time>
      </trkpt>
      <trkpt lat="44.77853" lon="5.46447">
        <ele>1906.91</ele>
        <time>2024-05-19T09:31:41Z</time>
      </trkpt>
      <trkpt lat="44.77843" lon="5.46437">
        <ele>1908.83</ele>
        <time>2024-05-19T09:31:56Z</time>
      </trkpt>
      <trkpt lat="44.77836" lon="5.46429">
        <ele>1908.83</ele>
        <time>2024-05-19T09:32:07Z</time>
      </trkpt>
      <trkpt lat="44.77833" lon="5.46427">
        <ele>1908.83</ele>
        <time>2024-05-19T09:32:10Z</time>
      </trkpt>
      <trkpt lat="44.77824" lon="5.46414">
        <ele>1907.39</ele>
        <time>2024-05-19T09:32:26Z</time>
      </trkpt>
      <trkpt lat="44.77812" lon="5.46407">
        <ele>1908.83</ele>
        <time>2024-05-19T09:32:40Z</time>
      </trkpt>
      <trkpt lat="44.77806" lon="5.46404">
        <ele>1908.83</ele>
        <time>2024-05-19T09:32:46Z</time>
      </trkpt>
      <trkpt lat="44.77791" lon="5.46397">
        <ele>1908.83</ele>
        <time>2024-05-19T09:33:04Z</time>
      </trkpt>
      <trkpt lat="44.77784" lon="5.4639">
        <ele>1906.91</ele>
        <time>2024-05-19T09:33:13Z</time>
      </trkpt>
      <trkpt lat="44.77779" lon="5.46389">
        <ele>1906.43</ele>
        <time>2024-05-19T09:33:18Z</time>
      </trkpt>
      <trkpt lat="44.77778" lon="5.4639">
        <ele>1906.43</ele>
        <time>2024-05-19T09:33:20Z</time>
      </trkpt>
      <trkpt lat="44.77773" lon="5.46387">
        <ele>1906.43</ele>
        <time>2024-05-19T09:33:25Z</time>
      </trkpt>
      <trkpt lat="44.77767" lon="5.46386">
        <ele>1907.87</ele>
        <time>2024-05-19T09:33:31Z</time>
      </trkpt>
      <trkpt lat="44.77763" lon="5.46384">
        <ele>1906.43</ele>
        <time>2024-05-19T09:33:36Z</time>
      </trkpt>
      <trkpt lat="44.77753" lon="5.46379">
        <ele>1903.55</ele>
        <time>2024-05-19T09:33:48Z</time>
      </trkpt>
      <trkpt lat="44.77744" lon="5.46368">
        <ele>1901.14</ele>
        <time>2024-05-19T09:34:03Z</time>
      </trkpt>
      <trkpt lat="44.77743" lon="5.46367">
        <ele>1901.63</ele>
        <time>2024-05-19T09:35:18Z</time>
      </trkpt>
      <trkpt lat="44.7774" lon="5.46366">
        <ele>1902.11</ele>
        <time>2024-05-19T09:35:32Z</time>
      </trkpt>
      <trkpt lat="44.77737" lon="5.46365">
        <ele>1901.14</ele>
        <time>2024-05-19T09:35:38Z</time>
      </trkpt>
      <trkpt lat="44.77732" lon="5.46363">
        <ele>1900.18</ele>
        <time>2024-05-19T09:35:55Z</time>
      </trkpt>
      <trkpt lat="44.77719" lon="5.46357">
        <ele>1898.26</ele>
        <time>2024-05-19T09:36:12Z</time>
      </trkpt>
      <trkpt lat="44.77718" lon="5.46356">
        <ele>1898.26</ele>
        <time>2024-05-19T09:36:13Z</time>
      </trkpt>
      <trkpt lat="44.7771" lon="5.4635">
        <ele>1896.34</ele>
        <time>2024-05-19T09:36:23Z</time>
      </trkpt>
      <trkpt lat="44.77703" lon="5.46348">
        <ele>1896.82</ele>
        <time>2024-05-19T09:36:30Z</time>
      </trkpt>
      <trkpt lat="44.7769" lon="5.46345">
        <ele>1895.38</ele>
        <time>2024-05-19T09:36:43Z</time>
      </trkpt>
      <trkpt lat="44.77677" lon="5.46341">
        <ele>1893.93</ele>
        <time>2024-05-19T09:36:58Z</time>
      </trkpt>
      <trkpt lat="44.77662" lon="5.46337">
        <ele>1892.97</ele>
        <time>2024-05-19T09:37:14Z</time>
      </trkpt>
      <trkpt lat="44.77647" lon="5.46327">
        <ele>1890.09</ele>
        <time>2024-05-19T09:37:33Z</time>
      </trkpt>
      <trkpt lat="44.77638" lon="5.46319">
        <ele>1889.13</ele>
        <time>2024-05-19T09:37:45Z</time>
      </trkpt>
      <trkpt lat="44.77632" lon="5.46318">
        <ele>1888.65</ele>
        <time>2024-05-19T09:37:52Z</time>
      </trkpt>
      <trkpt lat="44.77623" lon="5.46319">
        <ele>1890.09</ele>
        <time>2024-05-19T09:38:02Z</time>
      </trkpt>
      <trkpt lat="44.77619" lon="5.46319">
        <ele>1891.53</ele>
        <time>2024-05-19T09:38:06Z</time>
      </trkpt>
      <trkpt lat="44.77611" lon="5.46317">
        <ele>1892.97</ele>
        <time>2024-05-19T09:38:17Z</time>
      </trkpt>
      <trkpt lat="44.77604" lon="5.4632">
        <ele>1891.53</ele>
        <time>2024-05-19T09:38:26Z</time>
      </trkpt>
      <trkpt lat="44.77595" lon="5.46325">
        <ele>1891.05</ele>
        <time>2024-05-19T09:38:37Z</time>
      </trkpt>
      <trkpt lat="44.7758" lon="5.46337">
        <ele>1891.05</ele>
        <time>2024-05-19T09:38:55Z</time>
      </trkpt>
      <trkpt lat="44.77572" lon="5.46346">
        <ele>1891.05</ele>
        <time>2024-05-19T09:39:09Z</time>
      </trkpt>
      <trkpt lat="44.77564" lon="5.46358">
        <ele>1893.45</ele>
        <time>2024-05-19T09:39:22Z</time>
      </trkpt>
      <trkpt lat="44.77559" lon="5.46364">
        <ele>1893.45</ele>
        <time>2024-05-19T09:39:31Z</time>
      </trkpt>
      <trkpt lat="44.77553" lon="5.46367">
        <ele>1893.45</ele>
        <time>2024-05-19T09:39:38Z</time>
      </trkpt>
      <trkpt lat="44.77546" lon="5.46376">
        <ele>1893.45</ele>
        <time>2024-05-19T09:39:47Z</time>
      </trkpt>
      <trkpt lat="44.77533" lon="5.46389">
        <ele>1893.45</ele>
        <time>2024-05-19T09:40:04Z</time>
      </trkpt>
      <trkpt lat="44.77526" lon="5.46396">
        <ele>1892.01</ele>
        <time>2024-05-19T09:40:14Z</time>
      </trkpt>
      <trkpt lat="44.77521" lon="5.46401">
        <ele>1891.05</ele>
        <time>2024-05-19T09:40:29Z</time>
      </trkpt>
      <trkpt lat="44.77519" lon="5.46402">
        <ele>1890.57</ele>
        <time>2024-05-19T09:43:54Z</time>
      </trkpt>
      <trkpt lat="44.77513" lon="5.46412">
        <ele>1889.61</ele>
        <time>2024-05-19T09:44:08Z</time>
      </trkpt>
      <trkpt lat="44.77504" lon="5.46423">
        <ele>1889.13</ele>
        <time>2024-05-19T09:44:20Z</time>
      </trkpt>
      <trkpt lat="44.77501" lon="5.4643">
        <ele>1888.65</ele>
        <time>2024-05-19T09:44:26Z</time>
      </trkpt>
      <trkpt lat="44.77494" lon="5.46449">
        <ele>1888.65</ele>
        <time>2024-05-19T09:44:40Z</time>
      </trkpt>
      <trkpt lat="44.77492" lon="5.46456">
        <ele>1888.65</ele>
        <time>2024-05-19T09:44:44Z</time>
      </trkpt>
      <trkpt lat="44.7748" lon="5.46471">
        <ele>1888.65</ele>
        <time>2024-05-19T09:45:03Z</time>
      </trkpt>
      <trkpt lat="44.77471" lon="5.4648">
        <ele>1888.65</ele>
        <time>2024-05-19T09:45:16Z</time>
      </trkpt>
      <trkpt lat="44.7746" lon="5.46488">
        <ele>1888.65</ele>
        <time>2024-05-19T09:45:30Z</time>
      </trkpt>
      <trkpt lat="44.7745" lon="5.46489">
        <ele>1890.57</ele>
        <time>2024-05-19T09:45:43Z</time>
      </trkpt>
      <trkpt lat="44.77436" lon="5.46493">
        <ele>1889.61</ele>
        <time>2024-05-19T09:45:57Z</time>
      </trkpt>
      <trkpt lat="44.77434" lon="5.46491">
        <ele>1889.61</ele>
        <time>2024-05-19T09:46:00Z</time>
      </trkpt>
      <trkpt lat="44.77415" lon="5.4649">
        <ele>1889.61</ele>
        <time>2024-05-19T09:46:18Z</time>
      </trkpt>
      <trkpt lat="44.7741" lon="5.46492">
        <ele>1888.17</ele>
        <time>2024-05-19T09:46:25Z</time>
      </trkpt>
      <trkpt lat="44.77403" lon="5.46493">
        <ele>1887.69</ele>
        <time>2024-05-19T09:46:33Z</time>
      </trkpt>
      <trkpt lat="44.77394" lon="5.4649">
        <ele>1885.76</ele>
        <time>2024-05-19T09:46:46Z</time>
      </trkpt>
      <trkpt lat="44.77386" lon="5.46483">
        <ele>1883.84</ele>
        <time>2024-05-19T09:46:56Z</time>
      </trkpt>
      <trkpt lat="44.77374" lon="5.46484">
        <ele>1882.88</ele>
        <time>2024-05-19T09:47:12Z</time>
      </trkpt>
      <trkpt lat="44.77373" lon="5.46485">
        <ele>1884.32</ele>
        <time>2024-05-19T09:47:14Z</time>
      </trkpt>
      <trkpt lat="44.77372" lon="5.46487">
        <ele>1885.28</ele>
        <time>2024-05-19T09:47:16Z</time>
      </trkpt>
      <trkpt lat="44.77366" lon="5.46493">
        <ele>1886.72</ele>
        <time>2024-05-19T09:47:27Z</time>
      </trkpt>
      <trkpt lat="44.7736" lon="5.46499">
        <ele>1887.21</ele>
        <time>2024-05-19T09:47:35Z</time>
      </trkpt>
      <trkpt lat="44.77346" lon="5.46509">
        <ele>1888.65</ele>
        <time>2024-05-19T09:47:50Z</time>
      </trkpt>
      <trkpt lat="44.77339" lon="5.46513">
        <ele>1888.65</ele>
        <time>2024-05-19T09:47:57Z</time>
      </trkpt>
      <trkpt lat="44.77326" lon="5.46516">
        <ele>1888.65</ele>
        <time>2024-05-19T09:48:09Z</time>
      </trkpt>
      <trkpt lat="44.7731" lon="5.46524">
        <ele>1889.13</ele>
        <time>2024-05-19T09:48:26Z</time>
      </trkpt>
      <trkpt lat="44.77293" lon="5.46536">
        <ele>1889.13</ele>
        <time>2024-05-19T09:48:44Z</time>
      </trkpt>
      <trkpt lat="44.7728" lon="5.46539">
        <ele>1886.72</ele>
        <time>2024-05-19T09:49:00Z</time>
      </trkpt>
      <trkpt lat="44.77268" lon="5.46543">
        <ele>1884.32</ele>
        <time>2024-05-19T09:49:14Z</time>
      </trkpt>
      <trkpt lat="44.7726" lon="5.46544">
        <ele>1881.92</ele>
        <time>2024-05-19T09:49:26Z</time>
      </trkpt>
      <trkpt lat="44.77258" lon="5.46547">
        <ele>1881.44</ele>
        <time>2024-05-19T09:49:30Z</time>
      </trkpt>
      <trkpt lat="44.77252" lon="5.46548">
        <ele>1880.96</ele>
        <time>2024-05-19T09:49:35Z</time>
      </trkpt>
      <trkpt lat="44.77243" lon="5.46547">
        <ele>1881.92</ele>
        <time>2024-05-19T09:49:44Z</time>
      </trkpt>
      <trkpt lat="44.77225" lon="5.4654">
        <ele>1882.4</ele>
        <time>2024-05-19T09:50:00Z</time>
      </trkpt>
      <trkpt lat="44.77208" lon="5.4653">
        <ele>1883.36</ele>
        <time>2024-05-19T09:50:16Z</time>
      </trkpt>
      <trkpt lat="44.77205" lon="5.46528">
        <ele>1883.36</ele>
        <time>2024-05-19T09:50:18Z</time>
      </trkpt>
      <trkpt lat="44.77194" lon="5.46518">
        <ele>1883.36</ele>
        <time>2024-05-19T09:50:30Z</time>
      </trkpt>
      <trkpt lat="44.77179" lon="5.46503">
        <ele>1883.84</ele>
        <time>2024-05-19T09:50:47Z</time>
      </trkpt>
      <trkpt lat="44.77169" lon="5.46481">
        <ele>1881.44</ele>
        <time>2024-05-19T09:51:04Z</time>
      </trkpt>
      <trkpt lat="44.77165" lon="5.46462">
        <ele>1880</ele>
        <time>2024-05-19T09:51:18Z</time>
      </trkpt>
      <trkpt lat="44.77163" lon="5.46452">
        <ele>1879.51</ele>
        <time>2024-05-19T09:51:25Z</time>
      </trkpt>
      <trkpt lat="44.77152" lon="5.4643">
        <ele>1880.48</ele>
        <time>2024-05-19T09:51:42Z</time>
      </trkpt>
      <trkpt lat="44.77152" lon="5.46421">
        <ele>1880.48</ele>
        <time>2024-05-19T09:51:54Z</time>
      </trkpt>
      <trkpt lat="44.77145" lon="5.46394">
        <ele>1881.44</ele>
        <time>2024-05-19T09:52:12Z</time>
      </trkpt>
      <trkpt lat="44.77141" lon="5.46378">
        <ele>1882.4</ele>
        <time>2024-05-19T09:52:25Z</time>
      </trkpt>
      <trkpt lat="44.77137" lon="5.46363">
        <ele>1885.28</ele>
        <time>2024-05-19T09:52:39Z</time>
      </trkpt>
      <trkpt lat="44.77134" lon="5.46344">
        <ele>1886.24</ele>
        <time>2024-05-19T09:52:55Z</time>
      </trkpt>
      <trkpt lat="44.77134" lon="5.46341">
        <ele>1886.24</ele>
        <time>2024-05-19T09:52:59Z</time>
      </trkpt>
      <trkpt lat="44.77128" lon="5.4632">
        <ele>1887.69</ele>
        <time>2024-05-19T09:53:15Z</time>
      </trkpt>
      <trkpt lat="44.77126" lon="5.46314">
        <ele>1887.69</ele>
        <time>2024-05-19T09:53:19Z</time>
      </trkpt>
      <trkpt lat="44.77127" lon="5.46308">
        <ele>1888.17</ele>
        <time>2024-05-19T09:53:24Z</time>
      </trkpt>
      <trkpt lat="44.77126" lon="5.46305">
        <ele>1888.17</ele>
        <time>2024-05-19T09:53:26Z</time>
      </trkpt>
      <trkpt lat="44.77121" lon="5.46287">
        <ele>1888.65</ele>
        <time>2024-05-19T09:53:39Z</time>
      </trkpt>
      <trkpt lat="44.77117" lon="5.46273">
        <ele>1887.69</ele>
        <time>2024-05-19T09:53:49Z</time>
      </trkpt>
      <trkpt lat="44.77113" lon="5.4626">
        <ele>1887.69</ele>
        <time>2024-05-19T09:54:01Z</time>
      </trkpt>
      <trkpt lat="44.77113" lon="5.46255">
        <ele>1888.65</ele>
        <time>2024-05-19T09:54:04Z</time>
      </trkpt>
      <trkpt lat="44.77108" lon="5.46242">
        <ele>1889.13</ele>
        <time>2024-05-19T09:54:14Z</time>
      </trkpt>
      <trkpt lat="44.77101" lon="5.46218">
        <ele>1889.61</ele>
        <time>2024-05-19T09:54:32Z</time>
      </trkpt>
      <trkpt lat="44.77094" lon="5.46197">
        <ele>1890.09</ele>
        <time>2024-05-19T09:54:48Z</time>
      </trkpt>
      <trkpt lat="44.77089" lon="5.46177">
        <ele>1891.05</ele>
        <time>2024-05-19T09:55:03Z</time>
      </trkpt>
      <trkpt lat="44.77084" lon="5.46151">
        <ele>1890.57</ele>
        <time>2024-05-19T09:55:21Z</time>
      </trkpt>
      <trkpt lat="44.77085" lon="5.46136">
        <ele>1891.05</ele>
        <time>2024-05-19T09:55:34Z</time>
      </trkpt>
      <trkpt lat="44.77081" lon="5.46117">
        <ele>1891.05</ele>
        <time>2024-05-19T09:55:50Z</time>
      </trkpt>
      <trkpt lat="44.77081" lon="5.46117">
        <ele>1891.05</ele>
        <time>2024-05-19T09:55:51Z</time>
      </trkpt>
      <trkpt lat="44.77078" lon="5.46112">
        <ele>1891.05</ele>
        <time>2024-05-19T09:55:55Z</time>
      </trkpt>
      <trkpt lat="44.77075" lon="5.46105">
        <ele>1891.05</ele>
        <time>2024-05-19T09:56:01Z</time>
      </trkpt>
      <trkpt lat="44.77067" lon="5.46095">
        <ele>1891.05</ele>
        <time>2024-05-19T09:56:11Z</time>
      </trkpt>
      <trkpt lat="44.77057" lon="5.46085">
        <ele>1888.17</ele>
        <time>2024-05-19T09:56:26Z</time>
      </trkpt>
      <trkpt lat="44.77045" lon="5.46084">
        <ele>1887.21</ele>
        <time>2024-05-19T09:56:41Z</time>
      </trkpt>
      <trkpt lat="44.77039" lon="5.46093">
        <ele>1887.21</ele>
        <time>2024-05-19T09:56:54Z</time>
      </trkpt>
      <trkpt lat="44.77028" lon="5.46101">
        <ele>1886.72</ele>
        <time>2024-05-19T09:57:09Z</time>
      </trkpt>
      <trkpt lat="44.77018" lon="5.46109">
        <ele>1887.21</ele>
        <time>2024-05-19T09:57:23Z</time>
      </trkpt>
      <trkpt lat="44.77017" lon="5.46109">
        <ele>1887.21</ele>
        <time>2024-05-19T09:57:24Z</time>
      </trkpt>
      <trkpt lat="44.77004" lon="5.4612">
        <ele>1888.17</ele>
        <time>2024-05-19T09:57:40Z</time>
      </trkpt>
      <trkpt lat="44.76991" lon="5.46132">
        <ele>1886.72</ele>
        <time>2024-05-19T09:57:56Z</time>
      </trkpt>
      <trkpt lat="44.76984" lon="5.46135">
        <ele>1888.17</ele>
        <time>2024-05-19T09:58:05Z</time>
      </trkpt>
      <trkpt lat="44.76972" lon="5.4614">
        <ele>1889.13</ele>
        <time>2024-05-19T09:58:17Z</time>
      </trkpt>
      <trkpt lat="44.76957" lon="5.4614">
        <ele>1891.53</ele>
        <time>2024-05-19T09:58:33Z</time>
      </trkpt>
      <trkpt lat="44.76948" lon="5.4614">
        <ele>1893.45</ele>
        <time>2024-05-19T09:58:47Z</time>
      </trkpt>
      <trkpt lat="44.76939" lon="5.46145">
        <ele>1894.9</ele>
        <time>2024-05-19T09:59:02Z</time>
      </trkpt>
      <trkpt lat="44.7693" lon="5.46145">
        <ele>1897.3</ele>
        <time>2024-05-19T09:59:17Z</time>
      </trkpt>
      <trkpt lat="44.76918" lon="5.46144">
        <ele>1898.26</ele>
        <time>2024-05-19T09:59:32Z</time>
      </trkpt>
      <trkpt lat="44.76915" lon="5.46144">
        <ele>1899.22</ele>
        <time>2024-05-19T09:59:35Z</time>
      </trkpt>
      <trkpt lat="44.76903" lon="5.46147">
        <ele>1897.78</ele>
        <time>2024-05-19T09:59:46Z</time>
      </trkpt>
      <trkpt lat="44.76896" lon="5.46146">
        <ele>1897.78</ele>
        <time>2024-05-19T09:59:54Z</time>
      </trkpt>
      <trkpt lat="44.76881" lon="5.46141">
        <ele>1896.82</ele>
        <time>2024-05-19T10:00:09Z</time>
      </trkpt>
      <trkpt lat="44.76873" lon="5.46136">
        <ele>1896.34</ele>
        <time>2024-05-19T10:00:17Z</time>
      </trkpt>
      <trkpt lat="44.76853" lon="5.46134">
        <ele>1896.34</ele>
        <time>2024-05-19T10:00:36Z</time>
      </trkpt>
      <trkpt lat="44.76852" lon="5.46134">
        <ele>1896.34</ele>
        <time>2024-05-19T10:00:37Z</time>
      </trkpt>
      <trkpt lat="44.76844" lon="5.46134">
        <ele>1896.34</ele>
        <time>2024-05-19T10:00:45Z</time>
      </trkpt>
      <trkpt lat="44.7683" lon="5.46133">
        <ele>1898.74</ele>
        <time>2024-05-19T10:00:59Z</time>
      </trkpt>
      <trkpt lat="44.76826" lon="5.46134">
        <ele>1899.22</ele>
        <time>2024-05-19T10:01:03Z</time>
      </trkpt>
      <trkpt lat="44.76809" lon="5.46131">
        <ele>1900.18</ele>
        <time>2024-05-19T10:01:19Z</time>
      </trkpt>
      <trkpt lat="44.76789" lon="5.46132">
        <ele>1901.14</ele>
        <time>2024-05-19T10:01:37Z</time>
      </trkpt>
      <trkpt lat="44.76775" lon="5.46132">
        <ele>1903.07</ele>
        <time>2024-05-19T10:01:51Z</time>
      </trkpt>
      <trkpt lat="44.76762" lon="5.46131">
        <ele>1904.51</ele>
        <time>2024-05-19T10:02:05Z</time>
      </trkpt>
      <trkpt lat="44.76751" lon="5.46128">
        <ele>1905.47</ele>
        <time>2024-05-19T10:02:16Z</time>
      </trkpt>
      <trkpt lat="44.76737" lon="5.46124">
        <ele>1905.47</ele>
        <time>2024-05-19T10:02:32Z</time>
      </trkpt>
      <trkpt lat="44.76722" lon="5.46118">
        <ele>1905.47</ele>
        <time>2024-05-19T10:02:49Z</time>
      </trkpt>
      <trkpt lat="44.76704" lon="5.46111">
        <ele>1905.47</ele>
        <time>2024-05-19T10:03:06Z</time>
      </trkpt>
      <trkpt lat="44.76686" lon="5.46102">
        <ele>1905.47</ele>
        <time>2024-05-19T10:03:24Z</time>
      </trkpt>
      <trkpt lat="44.76685" lon="5.46102">
        <ele>1905.47</ele>
        <time>2024-05-19T10:03:25Z</time>
      </trkpt>
      <trkpt lat="44.76674" lon="5.46094">
        <ele>1907.87</ele>
        <time>2024-05-19T10:03:41Z</time>
      </trkpt>
      <trkpt lat="44.76665" lon="5.46086">
        <ele>1909.8</ele>
        <time>2024-05-19T10:03:56Z</time>
      </trkpt>
      <trkpt lat="44.7666" lon="5.4608">
        <ele>1910.28</ele>
        <time>2024-05-19T10:04:12Z</time>
      </trkpt>
      <trkpt lat="44.76656" lon="5.46078">
        <ele>1910.76</ele>
        <time>2024-05-19T10:04:18Z</time>
      </trkpt>
      <trkpt lat="44.76649" lon="5.46078">
        <ele>1910.76</ele>
        <time>2024-05-19T10:04:25Z</time>
      </trkpt>
      <trkpt lat="44.76645" lon="5.46079">
        <ele>1910.76</ele>
        <time>2024-05-19T10:04:29Z</time>
      </trkpt>
      <trkpt lat="44.76644" lon="5.46081">
        <ele>1910.76</ele>
        <time>2024-05-19T10:04:31Z</time>
      </trkpt>
      <trkpt lat="44.76632" lon="5.46091">
        <ele>1911.24</ele>
        <time>2024-05-19T10:04:46Z</time>
      </trkpt>
      <trkpt lat="44.76623" lon="5.461">
        <ele>1912.2</ele>
        <time>2024-05-19T10:04:59Z</time>
      </trkpt>
      <trkpt lat="44.76615" lon="5.461">
        <ele>1915.56</ele>
        <time>2024-05-19T10:05:13Z</time>
      </trkpt>
      <trkpt lat="44.76603" lon="5.46103">
        <ele>1917.01</ele>
        <time>2024-05-19T10:05:29Z</time>
      </trkpt>
      <trkpt lat="44.7659" lon="5.46104">
        <ele>1917.01</ele>
        <time>2024-05-19T10:05:43Z</time>
      </trkpt>
      <trkpt lat="44.76588" lon="5.46104">
        <ele>1917.01</ele>
        <time>2024-05-19T10:05:45Z</time>
      </trkpt>
      <trkpt lat="44.76576" lon="5.46108">
        <ele>1915.56</ele>
        <time>2024-05-19T10:05:56Z</time>
      </trkpt>
      <trkpt lat="44.76575" lon="5.46108">
        <ele>1915.56</ele>
        <time>2024-05-19T10:05:57Z</time>
      </trkpt>
      <trkpt lat="44.76572" lon="5.46109">
        <ele>1915.08</ele>
        <time>2024-05-19T10:06:00Z</time>
      </trkpt>
      <trkpt lat="44.76556" lon="5.46113">
        <ele>1916.04</ele>
        <time>2024-05-19T10:06:19Z</time>
      </trkpt>
      <trkpt lat="44.76543" lon="5.46108">
        <ele>1917.49</ele>
        <time>2024-05-19T10:06:35Z</time>
      </trkpt>
      <trkpt lat="44.76534" lon="5.46107">
        <ele>1918.45</ele>
        <time>2024-05-19T10:06:49Z</time>
      </trkpt>
      <trkpt lat="44.76531" lon="5.46104">
        <ele>1918.93</ele>
        <time>2024-05-19T10:06:54Z</time>
      </trkpt>
      <trkpt lat="44.76512" lon="5.4609">
        <ele>1917.01</ele>
        <time>2024-05-19T10:07:14Z</time>
      </trkpt>
      <trkpt lat="44.76496" lon="5.46088">
        <ele>1916.53</ele>
        <time>2024-05-19T10:07:29Z</time>
      </trkpt>
      <trkpt lat="44.76484" lon="5.46087">
        <ele>1914.12</ele>
        <time>2024-05-19T10:07:43Z</time>
      </trkpt>
      <trkpt lat="44.76476" lon="5.46094">
        <ele>1913.64</ele>
        <time>2024-05-19T10:07:52Z</time>
      </trkpt>
      <trkpt lat="44.76467" lon="5.46106">
        <ele>1913.16</ele>
        <time>2024-05-19T10:08:03Z</time>
      </trkpt>
      <trkpt lat="44.76457" lon="5.46117">
        <ele>1912.2</ele>
        <time>2024-05-19T10:08:17Z</time>
      </trkpt>
      <trkpt lat="44.76448" lon="5.46134">
        <ele>1911.24</ele>
        <time>2024-05-19T10:08:33Z</time>
      </trkpt>
      <trkpt lat="44.76438" lon="5.46149">
        <ele>1910.28</ele>
        <time>2024-05-19T10:08:50Z</time>
      </trkpt>
      <trkpt lat="44.76434" lon="5.46153">
        <ele>1909.8</ele>
        <time>2024-05-19T10:08:55Z</time>
      </trkpt>
      <trkpt lat="44.76429" lon="5.46155">
        <ele>1909.32</ele>
        <time>2024-05-19T10:09:00Z</time>
      </trkpt>
      <trkpt lat="44.7641" lon="5.46145">
        <ele>1909.32</ele>
        <time>2024-05-19T10:09:17Z</time>
      </trkpt>
      <trkpt lat="44.76403" lon="5.46137">
        <ele>1907.87</ele>
        <time>2024-05-19T10:09:27Z</time>
      </trkpt>
      <trkpt lat="44.76399" lon="5.46134">
        <ele>1907.39</ele>
        <time>2024-05-19T10:09:31Z</time>
      </trkpt>
      <trkpt lat="44.76393" lon="5.46132">
        <ele>1906.91</ele>
        <time>2024-05-19T10:09:36Z</time>
      </trkpt>
      <trkpt lat="44.76383" lon="5.46136">
        <ele>1906.43</ele>
        <time>2024-05-19T10:09:47Z</time>
      </trkpt>
      <trkpt lat="44.7638" lon="5.46138">
        <ele>1906.43</ele>
        <time>2024-05-19T10:09:51Z</time>
      </trkpt>
      <trkpt lat="44.76365" lon="5.46139">
        <ele>1904.99</ele>
        <time>2024-05-19T10:10:07Z</time>
      </trkpt>
      <trkpt lat="44.7636" lon="5.4614">
        <ele>1904.51</ele>
        <time>2024-05-19T10:10:12Z</time>
      </trkpt>
      <trkpt lat="44.76349" lon="5.46151">
        <ele>1903.55</ele>
        <time>2024-05-19T10:10:28Z</time>
      </trkpt>
      <trkpt lat="44.76344" lon="5.46167">
        <ele>1903.07</ele>
        <time>2024-05-19T10:10:44Z</time>
      </trkpt>
      <trkpt lat="44.76344" lon="5.46169">
        <ele>1903.07</ele>
        <time>2024-05-19T10:10:46Z</time>
      </trkpt>
      <trkpt lat="44.76343" lon="5.46172">
        <ele>1903.07</ele>
        <time>2024-05-19T10:10:48Z</time>
      </trkpt>
      <trkpt lat="44.76338" lon="5.46175">
        <ele>1903.07</ele>
        <time>2024-05-19T10:10:53Z</time>
      </trkpt>
      <trkpt lat="44.76328" lon="5.4617">
        <ele>1902.11</ele>
        <time>2024-05-19T10:11:06Z</time>
      </trkpt>
      <trkpt lat="44.76327" lon="5.46169">
        <ele>1902.11</ele>
        <time>2024-05-19T10:11:07Z</time>
      </trkpt>
      <trkpt lat="44.76325" lon="5.46155">
        <ele>1901.63</ele>
        <time>2024-05-19T10:11:21Z</time>
      </trkpt>
      <trkpt lat="44.76322" lon="5.4614">
        <ele>1901.63</ele>
        <time>2024-05-19T10:11:33Z</time>
      </trkpt>
      <trkpt lat="44.76307" lon="5.46121">
        <ele>1900.66</ele>
        <time>2024-05-19T10:11:53Z</time>
      </trkpt>
      <trkpt lat="44.76305" lon="5.46119">
        <ele>1900.18</ele>
        <time>2024-05-19T10:11:56Z</time>
      </trkpt>
      <trkpt lat="44.76296" lon="5.461">
        <ele>1899.7</ele>
        <time>2024-05-19T10:12:11Z</time>
      </trkpt>
      <trkpt lat="44.76295" lon="5.46095">
        <ele>1899.7</ele>
        <time>2024-05-19T10:12:15Z</time>
      </trkpt>
      <trkpt lat="44.76294" lon="5.46089">
        <ele>1899.7</ele>
        <time>2024-05-19T10:12:20Z</time>
      </trkpt>
      <trkpt lat="44.76291" lon="5.46081">
        <ele>1899.7</ele>
        <time>2024-05-19T10:12:25Z</time>
      </trkpt>
      <trkpt lat="44.76285" lon="5.46061">
        <ele>1898.74</ele>
        <time>2024-05-19T10:12:41Z</time>
      </trkpt>
      <trkpt lat="44.76284" lon="5.46044">
        <ele>1898.74</ele>
        <time>2024-05-19T10:12:52Z</time>
      </trkpt>
      <trkpt lat="44.76284" lon="5.46035">
        <ele>1900.18</ele>
        <time>2024-05-19T10:12:58Z</time>
      </trkpt>
      <trkpt lat="44.76283" lon="5.46027">
        <ele>1900.66</ele>
        <time>2024-05-19T10:13:04Z</time>
      </trkpt>
      <trkpt lat="44.76275" lon="5.46011">
        <ele>1902.11</ele>
        <time>2024-05-19T10:13:19Z</time>
      </trkpt>
      <trkpt lat="44.76268" lon="5.46">
        <ele>1903.55</ele>
        <time>2024-05-19T10:13:31Z</time>
      </trkpt>
      <trkpt lat="44.76267" lon="5.45998">
        <ele>1904.03</ele>
        <time>2024-05-19T10:13:33Z</time>
      </trkpt>
      <trkpt lat="44.76256" lon="5.45989">
        <ele>1905.47</ele>
        <time>2024-05-19T10:13:48Z</time>
      </trkpt>
      <trkpt lat="44.76242" lon="5.45979">
        <ele>1907.39</ele>
        <time>2024-05-19T10:14:06Z</time>
      </trkpt>
      <trkpt lat="44.76231" lon="5.45978">
        <ele>1909.8</ele>
        <time>2024-05-19T10:14:22Z</time>
      </trkpt>
      <trkpt lat="44.76225" lon="5.45979">
        <ele>1910.28</ele>
        <time>2024-05-19T10:14:29Z</time>
      </trkpt>
      <trkpt lat="44.76223" lon="5.4598">
        <ele>1910.28</ele>
        <time>2024-05-19T10:14:31Z</time>
      </trkpt>
      <trkpt lat="44.76207" lon="5.45985">
        <ele>1911.24</ele>
        <time>2024-05-19T10:14:46Z</time>
      </trkpt>
      <trkpt lat="44.76196" lon="5.45989">
        <ele>1912.2</ele>
        <time>2024-05-19T10:15:00Z</time>
      </trkpt>
      <trkpt lat="44.76188" lon="5.45992">
        <ele>1913.16</ele>
        <time>2024-05-19T10:15:10Z</time>
      </trkpt>
      <trkpt lat="44.76182" lon="5.45992">
        <ele>1913.64</ele>
        <time>2024-05-19T10:15:17Z</time>
      </trkpt>
      <trkpt lat="44.76169" lon="5.46002">
        <ele>1914.12</ele>
        <time>2024-05-19T10:15:32Z</time>
      </trkpt>
      <trkpt lat="44.76163" lon="5.46008">
        <ele>1915.56</ele>
        <time>2024-05-19T10:15:41Z</time>
      </trkpt>
      <trkpt lat="44.76155" lon="5.46012">
        <ele>1915.56</ele>
        <time>2024-05-19T10:15:52Z</time>
      </trkpt>
      <trkpt lat="44.76146" lon="5.46019">
        <ele>1916.04</ele>
        <time>2024-05-19T10:16:06Z</time>
      </trkpt>
      <trkpt lat="44.7614" lon="5.46026">
        <ele>1916.04</ele>
        <time>2024-05-19T10:16:20Z</time>
      </trkpt>
      <trkpt lat="44.76134" lon="5.46032">
        <ele>1916.04</ele>
        <time>2024-05-19T10:16:29Z</time>
      </trkpt>
      <trkpt lat="44.76131" lon="5.46037">
        <ele>1916.04</ele>
        <time>2024-05-19T10:16:34Z</time>
      </trkpt>
      <trkpt lat="44.76118" lon="5.46054">
        <ele>1915.56</ele>
        <time>2024-05-19T10:16:51Z</time>
      </trkpt>
      <trkpt lat="44.76103" lon="5.46058">
        <ele>1914.12</ele>
        <time>2024-05-19T10:17:06Z</time>
      </trkpt>
      <trkpt lat="44.761" lon="5.46055">
        <ele>1914.12</ele>
        <time>2024-05-19T10:17:10Z</time>
      </trkpt>
      <trkpt lat="44.76083" lon="5.46056">
        <ele>1913.16</ele>
        <time>2024-05-19T10:17:28Z</time>
      </trkpt>
      <trkpt lat="44.76079" lon="5.4606">
        <ele>1912.68</ele>
        <time>2024-05-19T10:17:34Z</time>
      </trkpt>
      <trkpt lat="44.7606" lon="5.46058">
        <ele>1911.72</ele>
        <time>2024-05-19T10:17:51Z</time>
      </trkpt>
      <trkpt lat="44.76047" lon="5.46058">
        <ele>1913.16</ele>
        <time>2024-05-19T10:18:04Z</time>
      </trkpt>
      <trkpt lat="44.76035" lon="5.46054">
        <ele>1913.64</ele>
        <time>2024-05-19T10:18:17Z</time>
      </trkpt>
      <trkpt lat="44.76024" lon="5.46047">
        <ele>1914.12</ele>
        <time>2024-05-19T10:18:29Z</time>
      </trkpt>
      <trkpt lat="44.7601" lon="5.46041">
        <ele>1914.6</ele>
        <time>2024-05-19T10:18:44Z</time>
      </trkpt>
      <trkpt lat="44.75997" lon="5.4604">
        <ele>1916.04</ele>
        <time>2024-05-19T10:18:58Z</time>
      </trkpt>
      <trkpt lat="44.75987" lon="5.46046">
        <ele>1917.01</ele>
        <time>2024-05-19T10:19:12Z</time>
      </trkpt>
      <trkpt lat="44.75977" lon="5.46053">
        <ele>1917.49</ele>
        <time>2024-05-19T10:19:24Z</time>
      </trkpt>
      <trkpt lat="44.75967" lon="5.46058">
        <ele>1918.45</ele>
        <time>2024-05-19T10:19:37Z</time>
      </trkpt>
      <trkpt lat="44.75953" lon="5.46059">
        <ele>1918.45</ele>
        <time>2024-05-19T10:19:52Z</time>
      </trkpt>
      <trkpt lat="44.75942" lon="5.46073">
        <ele>1918.93</ele>
        <time>2024-05-19T10:20:09Z</time>
      </trkpt>
      <trkpt lat="44.7593" lon="5.4608">
        <ele>1917.97</ele>
        <time>2024-05-19T10:20:25Z</time>
      </trkpt>
      <trkpt lat="44.75928" lon="5.4608">
        <ele>1917.49</ele>
        <time>2024-05-19T10:20:27Z</time>
      </trkpt>
      <trkpt lat="44.75914" lon="5.46082">
        <ele>1916.53</ele>
        <time>2024-05-19T10:20:42Z</time>
      </trkpt>
      <trkpt lat="44.75902" lon="5.46087">
        <ele>1916.53</ele>
        <time>2024-05-19T10:20:56Z</time>
      </trkpt>
      <trkpt lat="44.759" lon="5.46089">
        <ele>1916.53</ele>
        <time>2024-05-19T10:20:59Z</time>
      </trkpt>
      <trkpt lat="44.75898" lon="5.46091">
        <ele>1918.45</ele>
        <time>2024-05-19T10:21:02Z</time>
      </trkpt>
      <trkpt lat="44.7589" lon="5.46091">
        <ele>1917.49</ele>
        <time>2024-05-19T10:21:09Z</time>
      </trkpt>
      <trkpt lat="44.75888" lon="5.46091">
        <ele>1917.01</ele>
        <time>2024-05-19T10:21:12Z</time>
      </trkpt>
      <trkpt lat="44.75886" lon="5.46091">
        <ele>1917.01</ele>
        <time>2024-05-19T10:21:14Z</time>
      </trkpt>
      <trkpt lat="44.75875" lon="5.46108">
        <ele>1916.53</ele>
        <time>2024-05-19T10:21:30Z</time>
      </trkpt>
      <trkpt lat="44.75862" lon="5.46125">
        <ele>1916.04</ele>
        <time>2024-05-19T10:21:48Z</time>
      </trkpt>
      <trkpt lat="44.75861" lon="5.46125">
        <ele>1916.04</ele>
        <time>2024-05-19T10:21:49Z</time>
      </trkpt>
      <trkpt lat="44.75853" lon="5.46134">
        <ele>1916.04</ele>
        <time>2024-05-19T10:21:59Z</time>
      </trkpt>
      <trkpt lat="44.75847" lon="5.46134">
        <ele>1916.04</ele>
        <time>2024-05-19T10:22:04Z</time>
      </trkpt>
      <trkpt lat="44.75846" lon="5.46135">
        <ele>1915.56</ele>
        <time>2024-05-19T10:22:06Z</time>
      </trkpt>
      <trkpt lat="44.75834" lon="5.46136">
        <ele>1914.12</ele>
        <time>2024-05-19T10:22:17Z</time>
      </trkpt>
      <trkpt lat="44.75823" lon="5.46148">
        <ele>1912.2</ele>
        <time>2024-05-19T10:22:32Z</time>
      </trkpt>
      <trkpt lat="44.75818" lon="5.46146">
        <ele>1911.72</ele>
        <time>2024-05-19T10:22:37Z</time>
      </trkpt>
      <trkpt lat="44.75804" lon="5.4615">
        <ele>1910.28</ele>
        <time>2024-05-19T10:22:52Z</time>
      </trkpt>
      <trkpt lat="44.75788" lon="5.46151">
        <ele>1911.24</ele>
        <time>2024-05-19T10:23:10Z</time>
      </trkpt>
      <trkpt lat="44.75775" lon="5.46147">
        <ele>1913.16</ele>
        <time>2024-05-19T10:23:26Z</time>
      </trkpt>
      <trkpt lat="44.75764" lon="5.46143">
        <ele>1915.08</ele>
        <time>2024-05-19T10:23:39Z</time>
      </trkpt>
      <trkpt lat="44.75751" lon="5.46139">
        <ele>1916.53</ele>
        <time>2024-05-19T10:23:55Z</time>
      </trkpt>
      <trkpt lat="44.75741" lon="5.46136">
        <ele>1916.53</ele>
        <time>2024-05-19T10:24:09Z</time>
      </trkpt>
      <trkpt lat="44.75735" lon="5.46135">
        <ele>1917.49</ele>
        <time>2024-05-19T10:33:17Z</time>
      </trkpt>
      <trkpt lat="44.75726" lon="5.46135">
        <ele>1917.49</ele>
        <time>2024-05-19T10:33:28Z</time>
      </trkpt>
      <trkpt lat="44.75708" lon="5.46134">
        <ele>1916.04</ele>
        <time>2024-05-19T10:33:45Z</time>
      </trkpt>
      <trkpt lat="44.75694" lon="5.46141">
        <ele>1915.08</ele>
        <time>2024-05-19T10:34:00Z</time>
      </trkpt>
      <trkpt lat="44.75683" lon="5.46153">
        <ele>1915.08</ele>
        <time>2024-05-19T10:34:14Z</time>
      </trkpt>
      <trkpt lat="44.75672" lon="5.46157">
        <ele>1915.08</ele>
        <time>2024-05-19T10:34:24Z</time>
      </trkpt>
      <trkpt lat="44.75657" lon="5.46171">
        <ele>1914.6</ele>
        <time>2024-05-19T10:34:40Z</time>
      </trkpt>
      <trkpt lat="44.75651" lon="5.46178">
        <ele>1914.6</ele>
        <time>2024-05-19T10:34:47Z</time>
      </trkpt>
      <trkpt lat="44.75638" lon="5.46183">
        <ele>1914.6</ele>
        <time>2024-05-19T10:34:59Z</time>
      </trkpt>
      <trkpt lat="44.75631" lon="5.46185">
        <ele>1914.6</ele>
        <time>2024-05-19T10:35:06Z</time>
      </trkpt>
      <trkpt lat="44.75615" lon="5.46197">
        <ele>1914.6</ele>
        <time>2024-05-19T10:35:22Z</time>
      </trkpt>
      <trkpt lat="44.75609" lon="5.462">
        <ele>1914.6</ele>
        <time>2024-05-19T10:35:28Z</time>
      </trkpt>
      <trkpt lat="44.75607" lon="5.46201">
        <ele>1914.6</ele>
        <time>2024-05-19T10:35:30Z</time>
      </trkpt>
      <trkpt lat="44.75605" lon="5.46201">
        <ele>1914.6</ele>
        <time>2024-05-19T10:35:32Z</time>
      </trkpt>
      <trkpt lat="44.75599" lon="5.46206">
        <ele>1914.6</ele>
        <time>2024-05-19T10:35:38Z</time>
      </trkpt>
      <trkpt lat="44.75594" lon="5.46208">
        <ele>1915.08</ele>
        <time>2024-05-19T10:35:43Z</time>
      </trkpt>
      <trkpt lat="44.75586" lon="5.46211">
        <ele>1915.08</ele>
        <time>2024-05-19T10:35:50Z</time>
      </trkpt>
      <trkpt lat="44.75574" lon="5.46212">
        <ele>1916.04</ele>
        <time>2024-05-19T10:36:02Z</time>
      </trkpt>
      <trkpt lat="44.75568" lon="5.4622">
        <ele>1916.53</ele>
        <time>2024-05-19T10:37:26Z</time>
      </trkpt>
      <trkpt lat="44.75559" lon="5.46229">
        <ele>1916.53</ele>
        <time>2024-05-19T10:37:35Z</time>
      </trkpt>
      <trkpt lat="44.75558" lon="5.46231">
        <ele>1915.08</ele>
        <time>2024-05-19T10:37:37Z</time>
      </trkpt>
      <trkpt lat="44.75557" lon="5.46232">
        <ele>1914.6</ele>
        <time>2024-05-19T10:37:38Z</time>
      </trkpt>
      <trkpt lat="44.75544" lon="5.46239">
        <ele>1912.2</ele>
        <time>2024-05-19T10:37:51Z</time>
      </trkpt>
      <trkpt lat="44.75537" lon="5.46246">
        <ele>1910.76</ele>
        <time>2024-05-19T10:37:59Z</time>
      </trkpt>
      <trkpt lat="44.75532" lon="5.46248">
        <ele>1910.28</ele>
        <time>2024-05-19T10:38:03Z</time>
      </trkpt>
      <trkpt lat="44.75513" lon="5.46253">
        <ele>1909.8</ele>
        <time>2024-05-19T10:38:19Z</time>
      </trkpt>
      <trkpt lat="44.75511" lon="5.46253">
        <ele>1909.8</ele>
        <time>2024-05-19T10:38:21Z</time>
      </trkpt>
      <trkpt lat="44.75508" lon="5.46253">
        <ele>1909.8</ele>
        <time>2024-05-19T10:38:24Z</time>
      </trkpt>
      <trkpt lat="44.75495" lon="5.46254">
        <ele>1911.72</ele>
        <time>2024-05-19T10:38:38Z</time>
      </trkpt>
      <trkpt lat="44.75479" lon="5.4625">
        <ele>1912.2</ele>
        <time>2024-05-19T10:38:55Z</time>
      </trkpt>
      <trkpt lat="44.75465" lon="5.46245">
        <ele>1912.2</ele>
        <time>2024-05-19T10:39:09Z</time>
      </trkpt>
      <trkpt lat="44.75458" lon="5.46243">
        <ele>1912.68</ele>
        <time>2024-05-19T10:39:17Z</time>
      </trkpt>
      <trkpt lat="44.75442" lon="5.46237">
        <ele>1914.12</ele>
        <time>2024-05-19T10:39:34Z</time>
      </trkpt>
      <trkpt lat="44.7544" lon="5.46235">
        <ele>1914.12</ele>
        <time>2024-05-19T10:39:36Z</time>
      </trkpt>
      <trkpt lat="44.75434" lon="5.46234">
        <ele>1914.6</ele>
        <time>2024-05-19T10:39:42Z</time>
      </trkpt>
      <trkpt lat="44.75417" lon="5.4624">
        <ele>1914.6</ele>
        <time>2024-05-19T10:39:58Z</time>
      </trkpt>
      <trkpt lat="44.75414" lon="5.4624">
        <ele>1914.6</ele>
        <time>2024-05-19T10:40:01Z</time>
      </trkpt>
      <trkpt lat="44.75395" lon="5.46241">
        <ele>1914.6</ele>
        <time>2024-05-19T10:40:18Z</time>
      </trkpt>
      <trkpt lat="44.75394" lon="5.46241">
        <ele>1914.6</ele>
        <time>2024-05-19T10:40:19Z</time>
      </trkpt>
      <trkpt lat="44.75378" lon="5.46233">
        <ele>1913.16</ele>
        <time>2024-05-19T10:40:34Z</time>
      </trkpt>
      <trkpt lat="44.75366" lon="5.4622">
        <ele>1912.2</ele>
        <time>2024-05-19T10:40:48Z</time>
      </trkpt>
      <trkpt lat="44.75354" lon="5.46212">
        <ele>1912.2</ele>
        <time>2024-05-19T10:41:02Z</time>
      </trkpt>
      <trkpt lat="44.75353" lon="5.46211">
        <ele>1913.16</ele>
        <time>2024-05-19T10:41:04Z</time>
      </trkpt>
      <trkpt lat="44.75349" lon="5.4621">
        <ele>1914.12</ele>
        <time>2024-05-19T10:41:07Z</time>
      </trkpt>
      <trkpt lat="44.75337" lon="5.46206">
        <ele>1915.56</ele>
        <time>2024-05-19T10:41:22Z</time>
      </trkpt>
      <trkpt lat="44.75326" lon="5.46203">
        <ele>1916.53</ele>
        <time>2024-05-19T10:41:35Z</time>
      </trkpt>
      <trkpt lat="44.75325" lon="5.46203">
        <ele>1916.53</ele>
        <time>2024-05-19T10:41:36Z</time>
      </trkpt>
      <trkpt lat="44.75321" lon="5.46204">
        <ele>1916.53</ele>
        <time>2024-05-19T10:41:39Z</time>
      </trkpt>
      <trkpt lat="44.75313" lon="5.46204">
        <ele>1917.01</ele>
        <time>2024-05-19T10:41:47Z</time>
      </trkpt>
      <trkpt lat="44.75299" lon="5.46205">
        <ele>1917.97</ele>
        <time>2024-05-19T10:42:03Z</time>
      </trkpt>
      <trkpt lat="44.75283" lon="5.46204">
        <ele>1918.45</ele>
        <time>2024-05-19T10:42:17Z</time>
      </trkpt>
      <trkpt lat="44.75281" lon="5.46206">
        <ele>1918.45</ele>
        <time>2024-05-19T10:42:19Z</time>
      </trkpt>
      <trkpt lat="44.75271" lon="5.46212">
        <ele>1918.45</ele>
        <time>2024-05-19T10:42:28Z</time>
      </trkpt>
      <trkpt lat="44.75268" lon="5.46212">
        <ele>1918.45</ele>
        <time>2024-05-19T10:42:31Z</time>
      </trkpt>
      <trkpt lat="44.75259" lon="5.46212">
        <ele>1918.93</ele>
        <time>2024-05-19T10:42:39Z</time>
      </trkpt>
      <trkpt lat="44.75255" lon="5.46211">
        <ele>1918.93</ele>
        <time>2024-05-19T10:42:43Z</time>
      </trkpt>
      <trkpt lat="44.75245" lon="5.4621">
        <ele>1919.41</ele>
        <time>2024-05-19T10:42:53Z</time>
      </trkpt>
      <trkpt lat="44.75237" lon="5.46209">
        <ele>1919.41</ele>
        <time>2024-05-19T10:43:00Z</time>
      </trkpt>
      <trkpt lat="44.75224" lon="5.46208">
        <ele>1919.41</ele>
        <time>2024-05-19T10:43:14Z</time>
      </trkpt>
      <trkpt lat="44.7522" lon="5.4621">
        <ele>1920.85</ele>
        <time>2024-05-19T10:43:18Z</time>
      </trkpt>
      <trkpt lat="44.75206" lon="5.46209">
        <ele>1921.81</ele>
        <time>2024-05-19T10:43:32Z</time>
      </trkpt>
      <trkpt lat="44.75189" lon="5.46212">
        <ele>1922.29</ele>
        <time>2024-05-19T10:43:48Z</time>
      </trkpt>
      <trkpt lat="44.7517" lon="5.46213">
        <ele>1922.77</ele>
        <time>2024-05-19T10:44:06Z</time>
      </trkpt>
      <trkpt lat="44.75151" lon="5.46217">
        <ele>1922.77</ele>
        <time>2024-05-19T10:44:24Z</time>
      </trkpt>
      <trkpt lat="44.75149" lon="5.46219">
        <ele>1921.33</ele>
        <time>2024-05-19T10:44:27Z</time>
      </trkpt>
      <trkpt lat="44.75135" lon="5.46225">
        <ele>1917.97</ele>
        <time>2024-05-19T10:44:42Z</time>
      </trkpt>
      <trkpt lat="44.75131" lon="5.46226">
        <ele>1917.49</ele>
        <time>2024-05-19T10:44:45Z</time>
      </trkpt>
      <trkpt lat="44.75115" lon="5.46232">
        <ele>1917.01</ele>
        <time>2024-05-19T10:45:00Z</time>
      </trkpt>
      <trkpt lat="44.75101" lon="5.46235">
        <ele>1917.97</ele>
        <time>2024-05-19T10:45:15Z</time>
      </trkpt>
      <trkpt lat="44.75094" lon="5.46241">
        <ele>1920.85</ele>
        <time>2024-05-19T10:45:29Z</time>
      </trkpt>
      <trkpt lat="44.75086" lon="5.46241">
        <ele>1922.77</ele>
        <time>2024-05-19T10:45:43Z</time>
      </trkpt>
      <trkpt lat="44.75076" lon="5.46248">
        <ele>1924.7</ele>
        <time>2024-05-19T10:45:58Z</time>
      </trkpt>
      <trkpt lat="44.75068" lon="5.46266">
        <ele>1926.62</ele>
        <time>2024-05-19T10:46:14Z</time>
      </trkpt>
      <trkpt lat="44.75062" lon="5.46277">
        <ele>1926.62</ele>
        <time>2024-05-19T10:46:25Z</time>
      </trkpt>
      <trkpt lat="44.75054" lon="5.46287">
        <ele>1926.62</ele>
        <time>2024-05-19T10:46:35Z</time>
      </trkpt>
      <trkpt lat="44.75041" lon="5.46303">
        <ele>1926.62</ele>
        <time>2024-05-19T10:46:50Z</time>
      </trkpt>
      <trkpt lat="44.75032" lon="5.46313">
        <ele>1927.58</ele>
        <time>2024-05-19T10:47:00Z</time>
      </trkpt>
      <trkpt lat="44.75021" lon="5.46322">
        <ele>1929.02</ele>
        <time>2024-05-19T10:47:14Z</time>
      </trkpt>
      <trkpt lat="44.7501" lon="5.46326">
        <ele>1929.98</ele>
        <time>2024-05-19T10:47:27Z</time>
      </trkpt>
      <trkpt lat="44.74999" lon="5.4633">
        <ele>1931.43</ele>
        <time>2024-05-19T10:47:42Z</time>
      </trkpt>
      <trkpt lat="44.74984" lon="5.46328">
        <ele>1931.91</ele>
        <time>2024-05-19T10:47:57Z</time>
      </trkpt>
      <trkpt lat="44.74977" lon="5.46327">
        <ele>1932.39</ele>
        <time>2024-05-19T10:48:09Z</time>
      </trkpt>
      <trkpt lat="44.74965" lon="5.46327">
        <ele>1934.79</ele>
        <time>2024-05-19T10:48:24Z</time>
      </trkpt>
      <trkpt lat="44.74962" lon="5.46327">
        <ele>1935.27</ele>
        <time>2024-05-19T10:48:27Z</time>
      </trkpt>
      <trkpt lat="44.74957" lon="5.46329">
        <ele>1936.23</ele>
        <time>2024-05-19T10:48:34Z</time>
      </trkpt>
      <trkpt lat="44.74947" lon="5.46332">
        <ele>1938.64</ele>
        <time>2024-05-19T10:48:50Z</time>
      </trkpt>
      <trkpt lat="44.74938" lon="5.46335">
        <ele>1941.04</ele>
        <time>2024-05-19T10:49:04Z</time>
      </trkpt>
      <trkpt lat="44.74927" lon="5.46343">
        <ele>1942.96</ele>
        <time>2024-05-19T10:49:20Z</time>
      </trkpt>
      <trkpt lat="44.74915" lon="5.46345">
        <ele>1944.4</ele>
        <time>2024-05-19T10:49:35Z</time>
      </trkpt>
      <trkpt lat="44.74904" lon="5.46349">
        <ele>1945.85</ele>
        <time>2024-05-19T10:49:50Z</time>
      </trkpt>
      <trkpt lat="44.74898" lon="5.46352">
        <ele>1947.29</ele>
        <time>2024-05-19T10:50:04Z</time>
      </trkpt>
      <trkpt lat="44.74889" lon="5.46349">
        <ele>1947.77</ele>
        <time>2024-05-19T10:50:19Z</time>
      </trkpt>
      <trkpt lat="44.74886" lon="5.4635">
        <ele>1948.25</ele>
        <time>2024-05-19T10:50:39Z</time>
      </trkpt>
      <trkpt lat="44.74886" lon="5.46352">
        <ele>1948.73</ele>
        <time>2024-05-19T10:51:14Z</time>
      </trkpt>
      <trkpt lat="44.74874" lon="5.46352">
        <ele>1949.69</ele>
        <time>2024-05-19T10:51:33Z</time>
      </trkpt>
      <trkpt lat="44.74861" lon="5.46354">
        <ele>1951.61</ele>
        <time>2024-05-19T10:51:48Z</time>
      </trkpt>
      <trkpt lat="44.74858" lon="5.46354">
        <ele>1952.57</ele>
        <time>2024-05-19T10:51:52Z</time>
      </trkpt>
      <trkpt lat="44.74847" lon="5.46358">
        <ele>1954.98</ele>
        <time>2024-05-19T10:52:08Z</time>
      </trkpt>
      <trkpt lat="44.74836" lon="5.46362">
        <ele>1956.42</ele>
        <time>2024-05-19T10:52:22Z</time>
      </trkpt>
      <trkpt lat="44.74826" lon="5.46366">
        <ele>1957.38</ele>
        <time>2024-05-19T10:52:36Z</time>
      </trkpt>
      <trkpt lat="44.74812" lon="5.46371">
        <ele>1958.34</ele>
        <time>2024-05-19T10:52:50Z</time>
      </trkpt>
      <trkpt lat="44.74803" lon="5.46384">
        <ele>1959.3</ele>
        <time>2024-05-19T10:53:04Z</time>
      </trkpt>
      <trkpt lat="44.74802" lon="5.46385">
        <ele>1959.3</ele>
        <time>2024-05-19T10:53:05Z</time>
      </trkpt>
      <trkpt lat="44.74788" lon="5.46394">
        <ele>1961.23</ele>
        <time>2024-05-19T10:53:22Z</time>
      </trkpt>
      <trkpt lat="44.74787" lon="5.46395">
        <ele>1961.23</ele>
        <time>2024-05-19T10:53:23Z</time>
      </trkpt>
      <trkpt lat="44.74783" lon="5.46395">
        <ele>1961.23</ele>
        <time>2024-05-19T10:53:26Z</time>
      </trkpt>
      <trkpt lat="44.74774" lon="5.464">
        <ele>1961.23</ele>
        <time>2024-05-19T10:53:41Z</time>
      </trkpt>
      <trkpt lat="44.74765" lon="5.46411">
        <ele>1963.15</ele>
        <time>2024-05-19T10:53:55Z</time>
      </trkpt>
      <trkpt lat="44.74763" lon="5.46414">
        <ele>1963.15</ele>
        <time>2024-05-19T10:53:58Z</time>
      </trkpt>
      <trkpt lat="44.74748" lon="5.46422">
        <ele>1963.63</ele>
        <time>2024-05-19T10:54:14Z</time>
      </trkpt>
      <trkpt lat="44.74738" lon="5.46419">
        <ele>1966.03</ele>
        <time>2024-05-19T10:54:27Z</time>
      </trkpt>
      <trkpt lat="44.74728" lon="5.46417">
        <ele>1967.96</ele>
        <time>2024-05-19T10:54:40Z</time>
      </trkpt>
      <trkpt lat="44.74715" lon="5.46413">
        <ele>1970.84</ele>
        <time>2024-05-19T10:54:57Z</time>
      </trkpt>
      <trkpt lat="44.74704" lon="5.46404">
        <ele>1972.28</ele>
        <time>2024-05-19T10:55:13Z</time>
      </trkpt>
      <trkpt lat="44.74694" lon="5.464">
        <ele>1973.24</ele>
        <time>2024-05-19T10:55:26Z</time>
      </trkpt>
      <trkpt lat="44.7468" lon="5.46397">
        <ele>1974.69</ele>
        <time>2024-05-19T10:55:42Z</time>
      </trkpt>
      <trkpt lat="44.74672" lon="5.46397">
        <ele>1975.17</ele>
        <time>2024-05-19T10:55:56Z</time>
      </trkpt>
      <trkpt lat="44.74664" lon="5.464">
        <ele>1975.17</ele>
        <time>2024-05-19T10:56:13Z</time>
      </trkpt>
      <trkpt lat="44.74664" lon="5.464">
        <ele>1974.2</ele>
        <time>2024-05-19T10:56:15Z</time>
      </trkpt>
      <trkpt lat="44.74663" lon="5.46399">
        <ele>1973.72</ele>
        <time>2024-05-19T10:56:31Z</time>
      </trkpt>
      <trkpt lat="44.74657" lon="5.46401">
        <ele>1973.24</ele>
        <time>2024-05-19T10:56:44Z</time>
      </trkpt>
      <trkpt lat="44.74646" lon="5.46407">
        <ele>1972.28</ele>
        <time>2024-05-19T10:57:00Z</time>
      </trkpt>
      <trkpt lat="44.7464" lon="5.46412">
        <ele>1972.28</ele>
        <time>2024-05-19T10:57:07Z</time>
      </trkpt>
      <trkpt lat="44.74623" lon="5.46427">
        <ele>1971.32</ele>
        <time>2024-05-19T10:57:24Z</time>
      </trkpt>
      <trkpt lat="44.74608" lon="5.46441">
        <ele>1970.36</ele>
        <time>2024-05-19T10:57:40Z</time>
      </trkpt>
      <trkpt lat="44.74597" lon="5.46452">
        <ele>1970.36</ele>
        <time>2024-05-19T10:57:54Z</time>
      </trkpt>
      <trkpt lat="44.74587" lon="5.46464">
        <ele>1970.36</ele>
        <time>2024-05-19T10:58:07Z</time>
      </trkpt>
      <trkpt lat="44.74576" lon="5.46474">
        <ele>1969.88</ele>
        <time>2024-05-19T10:58:21Z</time>
      </trkpt>
      <trkpt lat="44.7457" lon="5.46482">
        <ele>1969.4</ele>
        <time>2024-05-19T10:58:29Z</time>
      </trkpt>
      <trkpt lat="44.74566" lon="5.46483">
        <ele>1968.92</ele>
        <time>2024-05-19T10:58:33Z</time>
      </trkpt>
      <trkpt lat="44.7456" lon="5.46487">
        <ele>1968.44</ele>
        <time>2024-05-19T10:58:39Z</time>
      </trkpt>
      <trkpt lat="44.74556" lon="5.46495">
        <ele>1967.48</ele>
        <time>2024-05-19T10:58:47Z</time>
      </trkpt>
      <trkpt lat="44.74545" lon="5.46508">
        <ele>1965.07</ele>
        <time>2024-05-19T10:59:02Z</time>
      </trkpt>
      <trkpt lat="44.74531" lon="5.46517">
        <ele>1964.11</ele>
        <time>2024-05-19T10:59:17Z</time>
      </trkpt>
      <trkpt lat="44.74527" lon="5.46523">
        <ele>1965.55</ele>
        <time>2024-05-19T10:59:23Z</time>
      </trkpt>
      <trkpt lat="44.74526" lon="5.46525">
        <ele>1965.55</ele>
        <time>2024-05-19T10:59:25Z</time>
      </trkpt>
      <trkpt lat="44.74513" lon="5.46531">
        <ele>1967.96</ele>
        <time>2024-05-19T10:59:41Z</time>
      </trkpt>
      <trkpt lat="44.74501" lon="5.4654">
        <ele>1969.4</ele>
        <time>2024-05-19T10:59:55Z</time>
      </trkpt>
      <trkpt lat="44.74491" lon="5.46551">
        <ele>1970.36</ele>
        <time>2024-05-19T11:00:09Z</time>
      </trkpt>
      <trkpt lat="44.74488" lon="5.46553">
        <ele>1970.36</ele>
        <time>2024-05-19T11:00:13Z</time>
      </trkpt>
      <trkpt lat="44.74478" lon="5.46567">
        <ele>1970.84</ele>
        <time>2024-05-19T11:00:25Z</time>
      </trkpt>
      <trkpt lat="44.74467" lon="5.46584">
        <ele>1969.4</ele>
        <time>2024-05-19T11:00:42Z</time>
      </trkpt>
      <trkpt lat="44.74454" lon="5.466">
        <ele>1966.99</ele>
        <time>2024-05-19T11:00:59Z</time>
      </trkpt>
      <trkpt lat="44.74448" lon="5.46613">
        <ele>1966.03</ele>
        <time>2024-05-19T11:01:14Z</time>
      </trkpt>
      <trkpt lat="44.74438" lon="5.46631">
        <ele>1963.63</ele>
        <time>2024-05-19T11:01:29Z</time>
      </trkpt>
      <trkpt lat="44.74436" lon="5.46641">
        <ele>1963.15</ele>
        <time>2024-05-19T11:01:45Z</time>
      </trkpt>
      <trkpt lat="44.74432" lon="5.46656">
        <ele>1962.19</ele>
        <time>2024-05-19T11:02:00Z</time>
      </trkpt>
      <trkpt lat="44.74422" lon="5.46666">
        <ele>1959.78</ele>
        <time>2024-05-19T11:02:14Z</time>
      </trkpt>
      <trkpt lat="44.74414" lon="5.46685">
        <ele>1957.38</ele>
        <time>2024-05-19T11:02:29Z</time>
      </trkpt>
      <trkpt lat="44.74407" lon="5.46697">
        <ele>1954.98</ele>
        <time>2024-05-19T11:02:40Z</time>
      </trkpt>
      <trkpt lat="44.74398" lon="5.4672">
        <ele>1952.09</ele>
        <time>2024-05-19T11:02:59Z</time>
      </trkpt>
      <trkpt lat="44.7439" lon="5.46737">
        <ele>1950.17</ele>
        <time>2024-05-19T11:03:12Z</time>
      </trkpt>
      <trkpt lat="44.74387" lon="5.46744">
        <ele>1949.69</ele>
        <time>2024-05-19T11:03:18Z</time>
      </trkpt>
      <trkpt lat="44.74381" lon="5.46758">
        <ele>1946.81</ele>
        <time>2024-05-19T11:03:29Z</time>
      </trkpt>
      <trkpt lat="44.74379" lon="5.46765">
        <ele>1946.33</ele>
        <time>2024-05-19T11:03:34Z</time>
      </trkpt>
      <trkpt lat="44.74362" lon="5.46784">
        <ele>1943.92</ele>
        <time>2024-05-19T11:03:52Z</time>
      </trkpt>
      <trkpt lat="44.74359" lon="5.46788">
        <ele>1942.96</ele>
        <time>2024-05-19T11:03:56Z</time>
      </trkpt>
      <trkpt lat="44.74354" lon="5.46791">
        <ele>1942.48</ele>
        <time>2024-05-19T11:04:01Z</time>
      </trkpt>
      <trkpt lat="44.74342" lon="5.46808">
        <ele>1939.12</ele>
        <time>2024-05-19T11:04:18Z</time>
      </trkpt>
      <trkpt lat="44.74332" lon="5.46821">
        <ele>1936.23</ele>
        <time>2024-05-19T11:04:33Z</time>
      </trkpt>
      <trkpt lat="44.74321" lon="5.46828">
        <ele>1933.83</ele>
        <time>2024-05-19T11:04:44Z</time>
      </trkpt>
      <trkpt lat="44.74304" lon="5.46842">
        <ele>1932.39</ele>
        <time>2024-05-19T11:05:01Z</time>
      </trkpt>
      <trkpt lat="44.74296" lon="5.4685">
        <ele>1931.91</ele>
        <time>2024-05-19T11:05:14Z</time>
      </trkpt>
      <trkpt lat="44.7429" lon="5.46863">
        <ele>1931.43</ele>
        <time>2024-05-19T11:05:26Z</time>
      </trkpt>
      <trkpt lat="44.74287" lon="5.46874">
        <ele>1932.87</ele>
        <time>2024-05-19T11:05:36Z</time>
      </trkpt>
      <trkpt lat="44.74284" lon="5.46891">
        <ele>1933.83</ele>
        <time>2024-05-19T11:05:51Z</time>
      </trkpt>
      <trkpt lat="44.7428" lon="5.46907">
        <ele>1935.27</ele>
        <time>2024-05-19T11:06:05Z</time>
      </trkpt>
      <trkpt lat="44.74274" lon="5.46905">
        <ele>1936.71</ele>
        <time>2024-05-19T11:08:55Z</time>
      </trkpt>
      <trkpt lat="44.74274" lon="5.46905">
        <ele>1936.71</ele>
        <time>2024-05-19T11:09:11Z</time>
      </trkpt>
      <trkpt lat="44.74266" lon="5.46903">
        <ele>1938.64</ele>
        <time>2024-05-19T11:09:27Z</time>
      </trkpt>
      <trkpt lat="44.7426" lon="5.46911">
        <ele>1940.56</ele>
        <time>2024-05-19T11:09:42Z</time>
      </trkpt>
      <trkpt lat="44.74253" lon="5.46923">
        <ele>1942</ele>
        <time>2024-05-19T11:09:57Z</time>
      </trkpt>
      <trkpt lat="44.74242" lon="5.46923">
        <ele>1943.44</ele>
        <time>2024-05-19T11:10:13Z</time>
      </trkpt>
      <trkpt lat="44.74231" lon="5.46915">
        <ele>1946.33</ele>
        <time>2024-05-19T11:10:31Z</time>
      </trkpt>
      <trkpt lat="44.74221" lon="5.46912">
        <ele>1948.25</ele>
        <time>2024-05-19T11:10:46Z</time>
      </trkpt>
      <trkpt lat="44.74212" lon="5.46905">
        <ele>1950.65</ele>
        <time>2024-05-19T11:11:01Z</time>
      </trkpt>
      <trkpt lat="44.74203" lon="5.46896">
        <ele>1952.57</ele>
        <time>2024-05-19T11:11:17Z</time>
      </trkpt>
      <trkpt lat="44.7419" lon="5.46893">
        <ele>1954.98</ele>
        <time>2024-05-19T11:11:36Z</time>
      </trkpt>
      <trkpt lat="44.74181" lon="5.46887">
        <ele>1957.38</ele>
        <time>2024-05-19T11:11:54Z</time>
      </trkpt>
      <trkpt lat="44.74173" lon="5.46882">
        <ele>1959.3</ele>
        <time>2024-05-19T11:12:09Z</time>
      </trkpt>
      <trkpt lat="44.74164" lon="5.46881">
        <ele>1962.19</ele>
        <time>2024-05-19T11:12:25Z</time>
      </trkpt>
      <trkpt lat="44.74155" lon="5.4688">
        <ele>1965.07</ele>
        <time>2024-05-19T11:12:43Z</time>
      </trkpt>
      <trkpt lat="44.7415" lon="5.46878">
        <ele>1966.03</ele>
        <time>2024-05-19T11:13:00Z</time>
      </trkpt>
      <trkpt lat="44.74143" lon="5.46873">
        <ele>1967.96</ele>
        <time>2024-05-19T11:13:13Z</time>
      </trkpt>
      <trkpt lat="44.74134" lon="5.46864">
        <ele>1969.4</ele>
        <time>2024-05-19T11:13:30Z</time>
      </trkpt>
      <trkpt lat="44.74128" lon="5.46859">
        <ele>1970.36</ele>
        <time>2024-05-19T11:13:40Z</time>
      </trkpt>
      <trkpt lat="44.74121" lon="5.46854">
        <ele>1971.8</ele>
        <time>2024-05-19T11:13:53Z</time>
      </trkpt>
      <trkpt lat="44.74114" lon="5.46849">
        <ele>1974.69</ele>
        <time>2024-05-19T11:14:09Z</time>
      </trkpt>
      <trkpt lat="44.74104" lon="5.46846">
        <ele>1977.09</ele>
        <time>2024-05-19T11:14:27Z</time>
      </trkpt>
      <trkpt lat="44.74098" lon="5.4685">
        <ele>1979.49</ele>
        <time>2024-05-19T11:14:43Z</time>
      </trkpt>
      <trkpt lat="44.74094" lon="5.46862">
        <ele>1981.41</ele>
        <time>2024-05-19T11:14:59Z</time>
      </trkpt>
      <trkpt lat="44.74087" lon="5.46872">
        <ele>1982.86</ele>
        <time>2024-05-19T11:15:12Z</time>
      </trkpt>
      <trkpt lat="44.74078" lon="5.46872">
        <ele>1984.78</ele>
        <time>2024-05-19T11:15:28Z</time>
      </trkpt>
      <trkpt lat="44.74067" lon="5.46871">
        <ele>1986.7</ele>
        <time>2024-05-19T11:15:43Z</time>
      </trkpt>
      <trkpt lat="44.74057" lon="5.46878">
        <ele>1988.62</ele>
        <time>2024-05-19T11:15:58Z</time>
      </trkpt>
      <trkpt lat="44.74046" lon="5.46884">
        <ele>1990.07</ele>
        <time>2024-05-19T11:16:12Z</time>
      </trkpt>
      <trkpt lat="44.74032" lon="5.46893">
        <ele>1991.99</ele>
        <time>2024-05-19T11:16:26Z</time>
      </trkpt>
      <trkpt lat="44.74018" lon="5.46902">
        <ele>1991.99</ele>
        <time>2024-05-19T11:16:41Z</time>
      </trkpt>
      <trkpt lat="44.73999" lon="5.46909">
        <ele>1990.07</ele>
        <time>2024-05-19T11:16:58Z</time>
      </trkpt>
      <trkpt lat="44.73981" lon="5.46919">
        <ele>1990.55</ele>
        <time>2024-05-19T11:17:15Z</time>
      </trkpt>
      <trkpt lat="44.73977" lon="5.4692">
        <ele>1991.51</ele>
        <time>2024-05-19T11:17:19Z</time>
      </trkpt>
      <trkpt lat="44.73964" lon="5.46923">
        <ele>1991.99</ele>
        <time>2024-05-19T11:17:33Z</time>
      </trkpt>
      <trkpt lat="44.7395" lon="5.46926">
        <ele>1994.39</ele>
        <time>2024-05-19T11:17:49Z</time>
      </trkpt>
      <trkpt lat="44.73939" lon="5.4693">
        <ele>1995.35</ele>
        <time>2024-05-19T11:18:02Z</time>
      </trkpt>
      <trkpt lat="44.73928" lon="5.46932">
        <ele>1997.28</ele>
        <time>2024-05-19T11:18:16Z</time>
      </trkpt>
      <trkpt lat="44.73918" lon="5.46936">
        <ele>1999.2</ele>
        <time>2024-05-19T11:18:31Z</time>
      </trkpt>
      <trkpt lat="44.73908" lon="5.46933">
        <ele>2001.6</ele>
        <time>2024-05-19T11:18:46Z</time>
      </trkpt>
      <trkpt lat="44.73897" lon="5.46933">
        <ele>2004.01</ele>
        <time>2024-05-19T11:19:02Z</time>
      </trkpt>
      <trkpt lat="44.73886" lon="5.46931">
        <ele>2006.41</ele>
        <time>2024-05-19T11:19:19Z</time>
      </trkpt>
      <trkpt lat="44.73884" lon="5.46929">
        <ele>2006.89</ele>
        <time>2024-05-19T11:19:36Z</time>
      </trkpt>
      <trkpt lat="44.73875" lon="5.46935">
        <ele>2010.25</ele>
        <time>2024-05-19T11:19:52Z</time>
      </trkpt>
      <trkpt lat="44.73865" lon="5.46937">
        <ele>2012.66</ele>
        <time>2024-05-19T11:20:07Z</time>
      </trkpt>
      <trkpt lat="44.73857" lon="5.46943">
        <ele>2014.58</ele>
        <time>2024-05-19T11:20:22Z</time>
      </trkpt>
      <trkpt lat="44.73847" lon="5.4695">
        <ele>2016.98</ele>
        <time>2024-05-19T11:20:39Z</time>
      </trkpt>
      <trkpt lat="44.7384" lon="5.46957">
        <ele>2019.39</ele>
        <time>2024-05-19T11:20:55Z</time>
      </trkpt>
      <trkpt lat="44.7383" lon="5.46961">
        <ele>2021.79</ele>
        <time>2024-05-19T11:21:13Z</time>
      </trkpt>
      <trkpt lat="44.73825" lon="5.46964">
        <ele>2023.71</ele>
        <time>2024-05-19T11:21:28Z</time>
      </trkpt>
      <trkpt lat="44.73818" lon="5.46969">
        <ele>2025.64</ele>
        <time>2024-05-19T11:21:42Z</time>
      </trkpt>
      <trkpt lat="44.73808" lon="5.46973">
        <ele>2027.56</ele>
        <time>2024-05-19T11:21:56Z</time>
      </trkpt>
      <trkpt lat="44.73798" lon="5.46977">
        <ele>2030.44</ele>
        <time>2024-05-19T11:22:13Z</time>
      </trkpt>
      <trkpt lat="44.73788" lon="5.46981">
        <ele>2032.84</ele>
        <time>2024-05-19T11:22:29Z</time>
      </trkpt>
      <trkpt lat="44.73779" lon="5.46987">
        <ele>2034.29</ele>
        <time>2024-05-19T11:22:43Z</time>
      </trkpt>
      <trkpt lat="44.73768" lon="5.46992">
        <ele>2036.21</ele>
        <time>2024-05-19T11:22:59Z</time>
      </trkpt>
      <trkpt lat="44.73755" lon="5.46996">
        <ele>2039.09</ele>
        <time>2024-05-19T11:23:16Z</time>
      </trkpt>
      <trkpt lat="44.73743" lon="5.47002">
        <ele>2041.02</ele>
        <time>2024-05-19T11:23:34Z</time>
      </trkpt>
      <trkpt lat="44.73731" lon="5.47008">
        <ele>2042.46</ele>
        <time>2024-05-19T11:23:50Z</time>
      </trkpt>
      <trkpt lat="44.73723" lon="5.47011">
        <ele>2043.42</ele>
        <time>2024-05-19T11:24:04Z</time>
      </trkpt>
      <trkpt lat="44.7372" lon="5.47014">
        <ele>2044.86</ele>
        <time>2024-05-19T11:36:19Z</time>
      </trkpt>
      <trkpt lat="44.73711" lon="5.47022">
        <ele>2044.86</ele>
        <time>2024-05-19T11:36:35Z</time>
      </trkpt>
      <trkpt lat="44.7371" lon="5.47023">
        <ele>2044.86</ele>
        <time>2024-05-19T11:36:37Z</time>
      </trkpt>
      <trkpt lat="44.73696" lon="5.47042">
        <ele>2041.98</ele>
        <time>2024-05-19T11:36:55Z</time>
      </trkpt>
      <trkpt lat="44.73684" lon="5.47063">
        <ele>2039.57</ele>
        <time>2024-05-19T11:37:14Z</time>
      </trkpt>
      <trkpt lat="44.73675" lon="5.47079">
        <ele>2036.69</ele>
        <time>2024-05-19T11:37:31Z</time>
      </trkpt>
      <trkpt lat="44.73666" lon="5.47096">
        <ele>2033.81</ele>
        <time>2024-05-19T11:37:48Z</time>
      </trkpt>
      <trkpt lat="44.7366" lon="5.47101">
        <ele>2032.36</ele>
        <time>2024-05-19T11:38:04Z</time>
      </trkpt>
      <trkpt lat="44.73653" lon="5.47109">
        <ele>2030.44</ele>
        <time>2024-05-19T11:38:17Z</time>
      </trkpt>
      <trkpt lat="44.73643" lon="5.47114">
        <ele>2027.56</ele>
        <time>2024-05-19T11:38:31Z</time>
      </trkpt>
      <trkpt lat="44.73633" lon="5.47124">
        <ele>2024.19</ele>
        <time>2024-05-19T11:38:45Z</time>
      </trkpt>
      <trkpt lat="44.73624" lon="5.47138">
        <ele>2022.27</ele>
        <time>2024-05-19T11:38:59Z</time>
      </trkpt>
      <trkpt lat="44.73615" lon="5.47155">
        <ele>2020.35</ele>
        <time>2024-05-19T11:39:15Z</time>
      </trkpt>
      <trkpt lat="44.73606" lon="5.4717">
        <ele>2017.46</ele>
        <time>2024-05-19T11:39:30Z</time>
      </trkpt>
      <trkpt lat="44.73598" lon="5.47188">
        <ele>2014.1</ele>
        <time>2024-05-19T11:39:45Z</time>
      </trkpt>
      <trkpt lat="44.73596" lon="5.47192">
        <ele>2013.62</ele>
        <time>2024-05-19T11:39:49Z</time>
      </trkpt>
      <trkpt lat="44.73591" lon="5.47191">
        <ele>2012.18</ele>
        <time>2024-05-19T11:40:04Z</time>
      </trkpt>
      <trkpt lat="44.73586" lon="5.472">
        <ele>2011.22</ele>
        <time>2024-05-19T11:40:19Z</time>
      </trkpt>
      <trkpt lat="44.73582" lon="5.47209">
        <ele>2009.77</ele>
        <time>2024-05-19T11:40:27Z</time>
      </trkpt>
      <trkpt lat="44.73578" lon="5.47223">
        <ele>2006.89</ele>
        <time>2024-05-19T11:40:39Z</time>
      </trkpt>
      <trkpt lat="44.73574" lon="5.47238">
        <ele>2003.52</ele>
        <time>2024-05-19T11:40:53Z</time>
      </trkpt>
      <trkpt lat="44.73571" lon="5.47255">
        <ele>2000.16</ele>
        <time>2024-05-19T11:41:08Z</time>
      </trkpt>
      <trkpt lat="44.73564" lon="5.47269">
        <ele>1996.8</ele>
        <time>2024-05-19T11:41:21Z</time>
      </trkpt>
      <trkpt lat="44.73564" lon="5.47286">
        <ele>1993.43</ele>
        <time>2024-05-19T11:41:36Z</time>
      </trkpt>
      <trkpt lat="44.73564" lon="5.47287">
        <ele>1993.43</ele>
        <time>2024-05-19T11:41:37Z</time>
      </trkpt>
      <trkpt lat="44.73564" lon="5.47295">
        <ele>1991.51</ele>
        <time>2024-05-19T11:41:43Z</time>
      </trkpt>
      <trkpt lat="44.73565" lon="5.47313">
        <ele>1988.62</ele>
        <time>2024-05-19T11:41:57Z</time>
      </trkpt>
      <trkpt lat="44.73564" lon="5.47329">
        <ele>1985.74</ele>
        <time>2024-05-19T11:42:09Z</time>
      </trkpt>
      <trkpt lat="44.73561" lon="5.47349">
        <ele>1982.38</ele>
        <time>2024-05-19T11:42:23Z</time>
      </trkpt>
      <trkpt lat="44.73555" lon="5.47367">
        <ele>1979.49</ele>
        <time>2024-05-19T11:42:38Z</time>
      </trkpt>
      <trkpt lat="44.73552" lon="5.47369">
        <ele>1978.53</ele>
        <time>2024-05-19T11:42:54Z</time>
      </trkpt>
      <trkpt lat="44.73552" lon="5.47382">
        <ele>1976.61</ele>
        <time>2024-05-19T11:43:13Z</time>
      </trkpt>
      <trkpt lat="44.73551" lon="5.47384">
        <ele>1976.13</ele>
        <time>2024-05-19T11:43:15Z</time>
      </trkpt>
      <trkpt lat="44.73549" lon="5.47405">
        <ele>1972.76</ele>
        <time>2024-05-19T11:43:29Z</time>
      </trkpt>
      <trkpt lat="44.73547" lon="5.47421">
        <ele>1970.84</ele>
        <time>2024-05-19T11:43:41Z</time>
      </trkpt>
      <trkpt lat="44.73544" lon="5.47445">
        <ele>1967.96</ele>
        <time>2024-05-19T11:43:58Z</time>
      </trkpt>
      <trkpt lat="44.73544" lon="5.47452">
        <ele>1966.51</ele>
        <time>2024-05-19T11:44:04Z</time>
      </trkpt>
      <trkpt lat="44.73544" lon="5.47455">
        <ele>1965.55</ele>
        <time>2024-05-19T11:44:06Z</time>
      </trkpt>
      <trkpt lat="44.73538" lon="5.4748">
        <ele>1962.67</ele>
        <time>2024-05-19T11:44:25Z</time>
      </trkpt>
      <trkpt lat="44.73536" lon="5.47503">
        <ele>1959.78</ele>
        <time>2024-05-19T11:44:40Z</time>
      </trkpt>
      <trkpt lat="44.73536" lon="5.47511">
        <ele>1959.3</ele>
        <time>2024-05-19T11:44:45Z</time>
      </trkpt>
      <trkpt lat="44.73532" lon="5.47533">
        <ele>1957.38</ele>
        <time>2024-05-19T11:45:01Z</time>
      </trkpt>
      <trkpt lat="44.73528" lon="5.47538">
        <ele>1956.9</ele>
        <time>2024-05-19T11:45:14Z</time>
      </trkpt>
      <trkpt lat="44.73528" lon="5.47541">
        <ele>1956.9</ele>
        <time>2024-05-19T11:45:16Z</time>
      </trkpt>
      <trkpt lat="44.73513" lon="5.47561">
        <ele>1954.5</ele>
        <time>2024-05-19T11:45:34Z</time>
      </trkpt>
      <trkpt lat="44.73513" lon="5.47562">
        <ele>1954.5</ele>
        <time>2024-05-19T11:45:35Z</time>
      </trkpt>
      <trkpt lat="44.7351" lon="5.47568">
        <ele>1953.54</ele>
        <time>2024-05-19T11:45:39Z</time>
      </trkpt>
      <trkpt lat="44.73493" lon="5.47588">
        <ele>1951.61</ele>
        <time>2024-05-19T11:45:57Z</time>
      </trkpt>
      <trkpt lat="44.73481" lon="5.47598">
        <ele>1949.69</ele>
        <time>2024-05-19T11:46:09Z</time>
      </trkpt>
      <trkpt lat="44.73479" lon="5.47601">
        <ele>1949.69</ele>
        <time>2024-05-19T11:46:13Z</time>
      </trkpt>
      <trkpt lat="44.73478" lon="5.47605">
        <ele>1951.13</ele>
        <time>2024-05-19T11:46:16Z</time>
      </trkpt>
      <trkpt lat="44.73475" lon="5.47615">
        <ele>1951.61</ele>
        <time>2024-05-19T11:46:23Z</time>
      </trkpt>
      <trkpt lat="44.73473" lon="5.4762">
        <ele>1951.61</ele>
        <time>2024-05-19T11:46:27Z</time>
      </trkpt>
      <trkpt lat="44.7347" lon="5.47629">
        <ele>1950.17</ele>
        <time>2024-05-19T11:46:33Z</time>
      </trkpt>
      <trkpt lat="44.73469" lon="5.47631">
        <ele>1950.17</ele>
        <time>2024-05-19T11:46:35Z</time>
      </trkpt>
      <trkpt lat="44.73464" lon="5.4765">
        <ele>1950.17</ele>
        <time>2024-05-19T11:46:50Z</time>
      </trkpt>
      <trkpt lat="44.73461" lon="5.47665">
        <ele>1950.17</ele>
        <time>2024-05-19T11:47:03Z</time>
      </trkpt>
      <trkpt lat="44.73458" lon="5.47675">
        <ele>1950.17</ele>
        <time>2024-05-19T11:47:12Z</time>
      </trkpt>
      <trkpt lat="44.7345" lon="5.47699">
        <ele>1948.25</ele>
        <time>2024-05-19T11:47:29Z</time>
      </trkpt>
      <trkpt lat="44.73448" lon="5.47707">
        <ele>1948.25</ele>
        <time>2024-05-19T11:47:34Z</time>
      </trkpt>
      <trkpt lat="44.73444" lon="5.47716">
        <ele>1947.77</ele>
        <time>2024-05-19T11:47:41Z</time>
      </trkpt>
      <trkpt lat="44.73442" lon="5.47733">
        <ele>1945.85</ele>
        <time>2024-05-19T11:47:57Z</time>
      </trkpt>
      <trkpt lat="44.73442" lon="5.47734">
        <ele>1945.85</ele>
        <time>2024-05-19T11:47:58Z</time>
      </trkpt>
      <trkpt lat="44.73444" lon="5.47741">
        <ele>1946.33</ele>
        <time>2024-05-19T11:48:14Z</time>
      </trkpt>
      <trkpt lat="44.73443" lon="5.47743">
        <ele>1946.33</ele>
        <time>2024-05-19T11:48:15Z</time>
      </trkpt>
      <trkpt lat="44.73442" lon="5.47748">
        <ele>1944.88</ele>
        <time>2024-05-19T11:48:19Z</time>
      </trkpt>
      <trkpt lat="44.73443" lon="5.47758">
        <ele>1943.92</ele>
        <time>2024-05-19T11:48:31Z</time>
      </trkpt>
      <trkpt lat="44.73446" lon="5.47779">
        <ele>1942.96</ele>
        <time>2024-05-19T11:48:43Z</time>
      </trkpt>
      <trkpt lat="44.73445" lon="5.47794">
        <ele>1941.52</ele>
        <time>2024-05-19T11:48:57Z</time>
      </trkpt>
      <trkpt lat="44.73443" lon="5.47798">
        <ele>1941.04</ele>
        <time>2024-05-19T11:49:00Z</time>
      </trkpt>
      <trkpt lat="44.73439" lon="5.47822">
        <ele>1939.12</ele>
        <time>2024-05-19T11:49:17Z</time>
      </trkpt>
      <trkpt lat="44.73436" lon="5.47827">
        <ele>1938.16</ele>
        <time>2024-05-19T11:49:21Z</time>
      </trkpt>
      <trkpt lat="44.73436" lon="5.47831">
        <ele>1937.67</ele>
        <time>2024-05-19T11:49:23Z</time>
      </trkpt>
      <trkpt lat="44.73431" lon="5.47839">
        <ele>1936.71</ele>
        <time>2024-05-19T11:49:35Z</time>
      </trkpt>
      <trkpt lat="44.73424" lon="5.47853">
        <ele>1935.27</ele>
        <time>2024-05-19T11:49:48Z</time>
      </trkpt>
      <trkpt lat="44.73421" lon="5.47856">
        <ele>1935.27</ele>
        <time>2024-05-19T11:49:52Z</time>
      </trkpt>
      <trkpt lat="44.73416" lon="5.47871">
        <ele>1934.31</ele>
        <time>2024-05-19T11:50:06Z</time>
      </trkpt>
      <trkpt lat="44.73415" lon="5.47879">
        <ele>1932.87</ele>
        <time>2024-05-19T11:50:13Z</time>
      </trkpt>
      <trkpt lat="44.73406" lon="5.47896">
        <ele>1930.46</ele>
        <time>2024-05-19T11:50:29Z</time>
      </trkpt>
      <trkpt lat="44.73401" lon="5.479">
        <ele>1929.5</ele>
        <time>2024-05-19T11:50:36Z</time>
      </trkpt>
      <trkpt lat="44.73392" lon="5.47908">
        <ele>1927.58</ele>
        <time>2024-05-19T11:50:49Z</time>
      </trkpt>
      <trkpt lat="44.73386" lon="5.47914">
        <ele>1926.14</ele>
        <time>2024-05-19T11:51:03Z</time>
      </trkpt>
      <trkpt lat="44.73384" lon="5.47914">
        <ele>1925.18</ele>
        <time>2024-05-19T11:51:07Z</time>
      </trkpt>
      <trkpt lat="44.7338" lon="5.4792">
        <ele>1924.22</ele>
        <time>2024-05-19T11:51:19Z</time>
      </trkpt>
      <trkpt lat="44.73378" lon="5.47936">
        <ele>1921.33</ele>
        <time>2024-05-19T11:51:34Z</time>
      </trkpt>
      <trkpt lat="44.73376" lon="5.47941">
        <ele>1920.37</ele>
        <time>2024-05-19T11:51:38Z</time>
      </trkpt>
      <trkpt lat="44.73369" lon="5.47954">
        <ele>1916.04</ele>
        <time>2024-05-19T11:51:52Z</time>
      </trkpt>
      <trkpt lat="44.73365" lon="5.47967">
        <ele>1912.68</ele>
        <time>2024-05-19T11:52:04Z</time>
      </trkpt>
      <trkpt lat="44.73361" lon="5.47982">
        <ele>1909.32</ele>
        <time>2024-05-19T11:52:17Z</time>
      </trkpt>
      <trkpt lat="44.7336" lon="5.47993">
        <ele>1906.43</ele>
        <time>2024-05-19T11:52:27Z</time>
      </trkpt>
      <trkpt lat="44.73357" lon="5.48006">
        <ele>1903.07</ele>
        <time>2024-05-19T11:52:38Z</time>
      </trkpt>
      <trkpt lat="44.73356" lon="5.48007">
        <ele>1903.07</ele>
        <time>2024-05-19T11:52:39Z</time>
      </trkpt>
      <trkpt lat="44.73347" lon="5.48011">
        <ele>1901.14</ele>
        <time>2024-05-19T11:52:55Z</time>
      </trkpt>
      <trkpt lat="44.7334" lon="5.48013">
        <ele>1900.18</ele>
        <time>2024-05-19T11:53:10Z</time>
      </trkpt>
      <trkpt lat="44.73334" lon="5.48013">
        <ele>1900.18</ele>
        <time>2024-05-19T11:53:24Z</time>
      </trkpt>
      <trkpt lat="44.73333" lon="5.48013">
        <ele>1899.7</ele>
        <time>2024-05-19T11:53:53Z</time>
      </trkpt>
      <trkpt lat="44.73336" lon="5.48012">
        <ele>1899.7</ele>
        <time>2024-05-19T11:54:25Z</time>
      </trkpt>
      <trkpt lat="44.73324" lon="5.48013">
        <ele>1899.7</ele>
        <time>2024-05-19T11:54:38Z</time>
      </trkpt>
      <trkpt lat="44.73306" lon="5.48013">
        <ele>1899.7</ele>
        <time>2024-05-19T11:54:53Z</time>
      </trkpt>
      <trkpt lat="44.73291" lon="5.4801">
        <ele>1899.7</ele>
        <time>2024-05-19T11:55:06Z</time>
      </trkpt>
      <trkpt lat="44.73287" lon="5.48007">
        <ele>1899.7</ele>
        <time>2024-05-19T11:55:10Z</time>
      </trkpt>
      <trkpt lat="44.73268" lon="5.48">
        <ele>1897.3</ele>
        <time>2024-05-19T11:55:28Z</time>
      </trkpt>
      <trkpt lat="44.73251" lon="5.47991">
        <ele>1894.9</ele>
        <time>2024-05-19T11:55:43Z</time>
      </trkpt>
      <trkpt lat="44.73237" lon="5.47991">
        <ele>1894.42</ele>
        <time>2024-05-19T11:55:54Z</time>
      </trkpt>
      <trkpt lat="44.73215" lon="5.47997">
        <ele>1893.45</ele>
        <time>2024-05-19T11:56:12Z</time>
      </trkpt>
      <trkpt lat="44.73193" lon="5.47999">
        <ele>1891.05</ele>
        <time>2024-05-19T11:56:29Z</time>
      </trkpt>
      <trkpt lat="44.73177" lon="5.47993">
        <ele>1890.57</ele>
        <time>2024-05-19T11:56:43Z</time>
      </trkpt>
      <trkpt lat="44.73172" lon="5.47991">
        <ele>1890.57</ele>
        <time>2024-05-19T11:56:47Z</time>
      </trkpt>
      <trkpt lat="44.73153" lon="5.4799">
        <ele>1887.21</ele>
        <time>2024-05-19T11:57:03Z</time>
      </trkpt>
      <trkpt lat="44.73147" lon="5.47991">
        <ele>1885.76</ele>
        <time>2024-05-19T11:57:08Z</time>
      </trkpt>
      <trkpt lat="44.73142" lon="5.47987">
        <ele>1884.8</ele>
        <time>2024-05-19T11:57:13Z</time>
      </trkpt>
      <trkpt lat="44.73124" lon="5.47978">
        <ele>1882.88</ele>
        <time>2024-05-19T11:57:29Z</time>
      </trkpt>
      <trkpt lat="44.7312" lon="5.47979">
        <ele>1881.92</ele>
        <time>2024-05-19T11:57:33Z</time>
      </trkpt>
      <trkpt lat="44.73116" lon="5.47989">
        <ele>1880.96</ele>
        <time>2024-05-19T11:57:46Z</time>
      </trkpt>
      <trkpt lat="44.73116" lon="5.48">
        <ele>1880.48</ele>
        <time>2024-05-19T11:58:03Z</time>
      </trkpt>
      <trkpt lat="44.73115" lon="5.48013">
        <ele>1879.51</ele>
        <time>2024-05-19T11:58:10Z</time>
      </trkpt>
      <trkpt lat="44.73113" lon="5.48033">
        <ele>1878.55</ele>
        <time>2024-05-19T11:58:21Z</time>
      </trkpt>
      <trkpt lat="44.73107" lon="5.48051">
        <ele>1878.07</ele>
        <time>2024-05-19T11:58:34Z</time>
      </trkpt>
      <trkpt lat="44.73107" lon="5.48051">
        <ele>1878.07</ele>
        <time>2024-05-19T11:58:35Z</time>
      </trkpt>
      <trkpt lat="44.73104" lon="5.48056">
        <ele>1878.07</ele>
        <time>2024-05-19T11:58:38Z</time>
      </trkpt>
      <trkpt lat="44.73101" lon="5.48066">
        <ele>1877.59</ele>
        <time>2024-05-19T11:58:45Z</time>
      </trkpt>
      <trkpt lat="44.73099" lon="5.48073">
        <ele>1877.59</ele>
        <time>2024-05-19T11:58:49Z</time>
      </trkpt>
      <trkpt lat="44.73097" lon="5.48081">
        <ele>1877.11</ele>
        <time>2024-05-19T11:58:54Z</time>
      </trkpt>
      <trkpt lat="44.73088" lon="5.48104">
        <ele>1875.19</ele>
        <time>2024-05-19T11:59:09Z</time>
      </trkpt>
      <trkpt lat="44.73085" lon="5.48111">
        <ele>1874.71</ele>
        <time>2024-05-19T11:59:14Z</time>
      </trkpt>
      <trkpt lat="44.73072" lon="5.48126">
        <ele>1872.79</ele>
        <time>2024-05-19T11:59:27Z</time>
      </trkpt>
      <trkpt lat="44.73055" lon="5.48149">
        <ele>1868.94</ele>
        <time>2024-05-19T11:59:44Z</time>
      </trkpt>
      <trkpt lat="44.7305" lon="5.48155">
        <ele>1867.02</ele>
        <time>2024-05-19T11:59:51Z</time>
      </trkpt>
      <trkpt lat="44.73042" lon="5.48166">
        <ele>1864.13</ele>
        <time>2024-05-19T12:00:04Z</time>
      </trkpt>
      <trkpt lat="44.7304" lon="5.48173">
        <ele>1862.21</ele>
        <time>2024-05-19T12:00:11Z</time>
      </trkpt>
      <trkpt lat="44.73027" lon="5.48185">
        <ele>1858.85</ele>
        <time>2024-05-19T12:00:25Z</time>
      </trkpt>
      <trkpt lat="44.73015" lon="5.48197">
        <ele>1856.44</ele>
        <time>2024-05-19T12:00:37Z</time>
      </trkpt>
      <trkpt lat="44.73006" lon="5.48206">
        <ele>1853.56</ele>
        <time>2024-05-19T12:00:48Z</time>
      </trkpt>
      <trkpt lat="44.72995" lon="5.4822">
        <ele>1850.19</ele>
        <time>2024-05-19T12:01:02Z</time>
      </trkpt>
      <trkpt lat="44.72984" lon="5.48235">
        <ele>1846.83</ele>
        <time>2024-05-19T12:01:16Z</time>
      </trkpt>
      <trkpt lat="44.72974" lon="5.48241">
        <ele>1843.47</ele>
        <time>2024-05-19T12:01:28Z</time>
      </trkpt>
      <trkpt lat="44.72966" lon="5.48249">
        <ele>1841.06</ele>
        <time>2024-05-19T12:01:39Z</time>
      </trkpt>
      <trkpt lat="44.72963" lon="5.48254">
        <ele>1839.62</ele>
        <time>2024-05-19T12:01:44Z</time>
      </trkpt>
      <trkpt lat="44.7295" lon="5.48261">
        <ele>1836.74</ele>
        <time>2024-05-19T12:01:59Z</time>
      </trkpt>
      <trkpt lat="44.72942" lon="5.48264">
        <ele>1833.37</ele>
        <time>2024-05-19T12:02:12Z</time>
      </trkpt>
      <trkpt lat="44.72941" lon="5.4827">
        <ele>1832.41</ele>
        <time>2024-05-19T12:02:26Z</time>
      </trkpt>
      <trkpt lat="44.72943" lon="5.48276">
        <ele>1832.41</ele>
        <time>2024-05-19T12:02:43Z</time>
      </trkpt>
      <trkpt lat="44.7294" lon="5.48279">
        <ele>1831.93</ele>
        <time>2024-05-19T12:02:59Z</time>
      </trkpt>
      <trkpt lat="44.72935" lon="5.4828">
        <ele>1830.49</ele>
        <time>2024-05-19T12:03:12Z</time>
      </trkpt>
      <trkpt lat="44.72932" lon="5.48283">
        <ele>1830.01</ele>
        <time>2024-05-19T12:05:14Z</time>
      </trkpt>
      <trkpt lat="44.72929" lon="5.48292">
        <ele>1828.56</ele>
        <time>2024-05-19T12:05:28Z</time>
      </trkpt>
      <trkpt lat="44.72924" lon="5.48309">
        <ele>1825.2</ele>
        <time>2024-05-19T12:05:40Z</time>
      </trkpt>
      <trkpt lat="44.72923" lon="5.48312">
        <ele>1825.2</ele>
        <time>2024-05-19T12:05:42Z</time>
      </trkpt>
      <trkpt lat="44.7292" lon="5.48313">
        <ele>1824.72</ele>
        <time>2024-05-19T12:05:45Z</time>
      </trkpt>
      <trkpt lat="44.72918" lon="5.48316">
        <ele>1824.24</ele>
        <time>2024-05-19T12:05:48Z</time>
      </trkpt>
      <trkpt lat="44.72915" lon="5.48322">
        <ele>1822.8</ele>
        <time>2024-05-19T12:05:53Z</time>
      </trkpt>
      <trkpt lat="44.72912" lon="5.48337">
        <ele>1819.91</ele>
        <time>2024-05-19T12:06:07Z</time>
      </trkpt>
      <trkpt lat="44.72913" lon="5.48352">
        <ele>1816.55</ele>
        <time>2024-05-19T12:06:20Z</time>
      </trkpt>
      <trkpt lat="44.72911" lon="5.48362">
        <ele>1814.63</ele>
        <time>2024-05-19T12:06:29Z</time>
      </trkpt>
      <trkpt lat="44.72908" lon="5.48374">
        <ele>1811.26</ele>
        <time>2024-05-19T12:06:44Z</time>
      </trkpt>
      <trkpt lat="44.72912" lon="5.48382">
        <ele>1809.34</ele>
        <time>2024-05-19T12:06:53Z</time>
      </trkpt>
      <trkpt lat="44.72917" lon="5.4839">
        <ele>1806.94</ele>
        <time>2024-05-19T12:07:02Z</time>
      </trkpt>
      <trkpt lat="44.72918" lon="5.48395">
        <ele>1805.97</ele>
        <time>2024-05-19T12:07:06Z</time>
      </trkpt>
      <trkpt lat="44.72922" lon="5.48413">
        <ele>1802.61</ele>
        <time>2024-05-19T12:07:20Z</time>
      </trkpt>
      <trkpt lat="44.72922" lon="5.48418">
        <ele>1801.17</ele>
        <time>2024-05-19T12:07:24Z</time>
      </trkpt>
      <trkpt lat="44.72925" lon="5.48432">
        <ele>1797.8</ele>
        <time>2024-05-19T12:07:37Z</time>
      </trkpt>
      <trkpt lat="44.72929" lon="5.48448">
        <ele>1794.92</ele>
        <time>2024-05-19T12:07:49Z</time>
      </trkpt>
      <trkpt lat="44.72935" lon="5.48466">
        <ele>1792.03</ele>
        <time>2024-05-19T12:08:01Z</time>
      </trkpt>
      <trkpt lat="44.72936" lon="5.48476">
        <ele>1790.11</ele>
        <time>2024-05-19T12:08:07Z</time>
      </trkpt>
      <trkpt lat="44.72943" lon="5.48496">
        <ele>1786.75</ele>
        <time>2024-05-19T12:08:22Z</time>
      </trkpt>
      <trkpt lat="44.72946" lon="5.48516">
        <ele>1783.86</ele>
        <time>2024-05-19T12:08:34Z</time>
      </trkpt>
      <trkpt lat="44.72946" lon="5.48521">
        <ele>1782.9</ele>
        <time>2024-05-19T12:08:37Z</time>
      </trkpt>
      <trkpt lat="44.72943" lon="5.48547">
        <ele>1779.54</ele>
        <time>2024-05-19T12:08:51Z</time>
      </trkpt>
      <trkpt lat="44.72939" lon="5.48571">
        <ele>1776.65</ele>
        <time>2024-05-19T12:09:04Z</time>
      </trkpt>
      <trkpt lat="44.72931" lon="5.48599">
        <ele>1773.77</ele>
        <time>2024-05-19T12:09:20Z</time>
      </trkpt>
      <trkpt lat="44.72921" lon="5.48623">
        <ele>1773.77</ele>
        <time>2024-05-19T12:09:35Z</time>
      </trkpt>
      <trkpt lat="44.72912" lon="5.48646">
        <ele>1773.77</ele>
        <time>2024-05-19T12:09:50Z</time>
      </trkpt>
      <trkpt lat="44.72902" lon="5.4867">
        <ele>1773.29</ele>
        <time>2024-05-19T12:10:06Z</time>
      </trkpt>
      <trkpt lat="44.72891" lon="5.48693">
        <ele>1772.81</ele>
        <time>2024-05-19T12:10:22Z</time>
      </trkpt>
      <trkpt lat="44.72877" lon="5.48719">
        <ele>1771.85</ele>
        <time>2024-05-19T12:10:40Z</time>
      </trkpt>
      <trkpt lat="44.72863" lon="5.48739">
        <ele>1770.89</ele>
        <time>2024-05-19T12:10:56Z</time>
      </trkpt>
      <trkpt lat="44.72858" lon="5.4876">
        <ele>1769.92</ele>
        <time>2024-05-19T12:11:11Z</time>
      </trkpt>
      <trkpt lat="44.72858" lon="5.48786">
        <ele>1769.92</ele>
        <time>2024-05-19T12:11:26Z</time>
      </trkpt>
      <trkpt lat="44.72857" lon="5.48813">
        <ele>1772.33</ele>
        <time>2024-05-19T12:11:42Z</time>
      </trkpt>
      <trkpt lat="44.72853" lon="5.48839">
        <ele>1772.81</ele>
        <time>2024-05-19T12:11:57Z</time>
      </trkpt>
      <trkpt lat="44.72849" lon="5.48863">
        <ele>1773.29</ele>
        <time>2024-05-19T12:12:11Z</time>
      </trkpt>
      <trkpt lat="44.72848" lon="5.48882">
        <ele>1773.77</ele>
        <time>2024-05-19T12:12:24Z</time>
      </trkpt>
      <trkpt lat="44.72833" lon="5.48902">
        <ele>1773.77</ele>
        <time>2024-05-19T12:12:41Z</time>
      </trkpt>
      <trkpt lat="44.72828" lon="5.48909">
        <ele>1773.77</ele>
        <time>2024-05-19T12:12:54Z</time>
      </trkpt>
      <trkpt lat="44.72823" lon="5.48916">
        <ele>1773.77</ele>
        <time>2024-05-19T12:13:15Z</time>
      </trkpt>
      <trkpt lat="44.72808" lon="5.48935">
        <ele>1773.77</ele>
        <time>2024-05-19T12:13:31Z</time>
      </trkpt>
      <trkpt lat="44.728" lon="5.48947">
        <ele>1772.33</ele>
        <time>2024-05-19T12:13:48Z</time>
      </trkpt>
      <trkpt lat="44.72799" lon="5.48948">
        <ele>1772.33</ele>
        <time>2024-05-19T12:13:49Z</time>
      </trkpt>
      <trkpt lat="44.72797" lon="5.48953">
        <ele>1772.33</ele>
        <time>2024-05-19T12:13:53Z</time>
      </trkpt>
      <trkpt lat="44.7279" lon="5.48978">
        <ele>1771.37</ele>
        <time>2024-05-19T12:14:09Z</time>
      </trkpt>
      <trkpt lat="44.72777" lon="5.49001">
        <ele>1770.89</ele>
        <time>2024-05-19T12:14:28Z</time>
      </trkpt>
      <trkpt lat="44.7277" lon="5.49007">
        <ele>1769.92</ele>
        <time>2024-05-19T12:14:41Z</time>
      </trkpt>
      <trkpt lat="44.72762" lon="5.49017">
        <ele>1769.44</ele>
        <time>2024-05-19T12:14:57Z</time>
        <extensions>
          <visugpx:TrkExtension xmlns:visugpx="https://www.visugpx.com/editgpx/">
            <visugpx:node>1</visugpx:node>
            </visugpx:TrkExtension>
        </extensions>
      </trkpt>
    </trkseg>
  </trk>
</gpx>